BAW2065 EGKK-FIMP
Flight info
| Callsign | BAW2065 |
|---|---|
| Flight time | N/A |
| Altitude | 33000 |
| Route | ODVIK2Z ODVIK Y311 DVR L9 KONAN/N0477F330 UL607 KOK DCT REMBA UL607 MATUG DCT DINKU M867 XERUM DCT BAVAX DCT RADIZ/N0475F350 DCT NEMEK DCT ELTIB DCT GLOMY DCT PETAK DCT DIMIS DCT IPTES UL604 TRL DCT SALUN N705 BOPIX N710 TAKRI P751 KUNKI/N0486F370 P751 LXR M999 JDW G650 RASKA/N0481F380 G650 ASM/N0478F390 UR780 SETIT DCT XADOX DCT DWA N304 AVUSI UN304 MAEVA UL433 APKOT DCT TIBAG TIBAG2E |
| Aircraft | B772/H-SDE1E3FGHIJ3J5J6M1M2P2RWXYZ/LB1D1 |
Departure
| Time | 2026-04-07 20:53 |
|---|---|
| Airport | London Gatwick Airport (EGKK) |
Arrival
| Time | N/A |
|---|---|
| Airport | Sir Seewoosagur Ramgoolam International Airport (FIMP) |
| Time | Latitude | Longitude | Altitude | Speed | Heading |
|---|---|---|---|---|---|
| 2026-04-07 20:41 | 51.15974 | -0.16791 | 216 ft | 0 kts | 279° |
| 2026-04-07 20:42 | 51.15974 | -0.16793 | 217 ft | 1 kts | 279° |
| 2026-04-07 20:42 | 51.15977 | -0.16833 | 221 ft | 7 kts | 275° |
| 2026-04-07 20:43 | 51.15968 | -0.16937 | 214 ft | 12 kts | 251° |
| 2026-04-07 20:43 | 51.15904 | -0.17051 | 218 ft | 15 kts | 211° |
| 2026-04-07 20:43 | 51.15816 | -0.17126 | 215 ft | 15 kts | 246° |
| 2026-04-07 20:43 | 51.15792 | -0.17285 | 219 ft | 15 kts | 258° |
| 2026-04-07 20:44 | 51.15770 | -0.17445 | 214 ft | 15 kts | 258° |
| 2026-04-07 20:44 | 51.15747 | -0.17605 | 221 ft | 15 kts | 257° |
| 2026-04-07 20:44 | 51.15726 | -0.17764 | 210 ft | 15 kts | 257° |
| 2026-04-07 20:44 | 51.15704 | -0.17924 | 218 ft | 15 kts | 257° |
| 2026-04-07 20:45 | 51.15682 | -0.18084 | 214 ft | 15 kts | 257° |
| 2026-04-07 20:45 | 51.15660 | -0.18241 | 218 ft | 15 kts | 257° |
| 2026-04-07 20:45 | 51.15638 | -0.18401 | 208 ft | 15 kts | 258° |
| 2026-04-07 20:45 | 51.15616 | -0.18560 | 218 ft | 15 kts | 257° |
| 2026-04-07 20:46 | 51.15594 | -0.18720 | 215 ft | 15 kts | 257° |
| 2026-04-07 20:46 | 51.15536 | -0.18825 | 217 ft | 15 kts | 174° |
| 2026-04-07 20:46 | 51.15434 | -0.18789 | 214 ft | 16 kts | 166° |
| 2026-04-07 20:46 | 51.15325 | -0.18748 | 215 ft | 16 kts | 167° |
| 2026-04-07 20:47 | 51.15216 | -0.18711 | 216 ft | 15 kts | 168° |
| 2026-04-07 20:47 | 51.15135 | -0.18723 | 219 ft | 12 kts | 233° |
| 2026-04-07 20:47 | 51.15114 | -0.18846 | 217 ft | 12 kts | 258° |
| 2026-04-07 20:47 | 51.15097 | -0.18971 | 220 ft | 12 kts | 258° |
| 2026-04-07 20:48 | 51.15078 | -0.19115 | 214 ft | 15 kts | 257° |
| 2026-04-07 20:48 | 51.15055 | -0.19315 | 218 ft | 21 kts | 256° |
| 2026-04-07 20:48 | 51.15015 | -0.19570 | 217 ft | 25 kts | 257° |
| 2026-04-07 20:48 | 51.14978 | -0.19840 | 211 ft | 25 kts | 257° |
| 2026-04-07 20:49 | 51.14940 | -0.20111 | 218 ft | 25 kts | 258° |
| 2026-04-07 20:49 | 51.14903 | -0.20381 | 215 ft | 25 kts | 257° |
| 2026-04-07 20:49 | 51.14865 | -0.20651 | 212 ft | 25 kts | 257° |
| 2026-04-07 20:49 | 51.14828 | -0.20922 | 216 ft | 25 kts | 258° |
| 2026-04-07 20:50 | 51.14791 | -0.21152 | 220 ft | 20 kts | 250° |
| 2026-04-07 20:50 | 51.14760 | -0.21337 | 212 ft | 14 kts | 245° |
| 2026-04-07 20:50 | 51.14673 | -0.21354 | 216 ft | 12 kts | 162° |
| 2026-04-07 20:50 | 51.14634 | -0.21336 | 216 ft | 1 kts | 165° |
| 2026-04-07 20:51 | 51.14633 | -0.21335 | 216 ft | 0 kts | 165° |
| 2026-04-07 20:51 | 51.14622 | -0.21330 | 214 ft | 6 kts | 165° |
| 2026-04-07 20:51 | 51.14550 | -0.21283 | 216 ft | 14 kts | 141° |
| 2026-04-07 20:52 | 51.14521 | -0.21160 | 211 ft | 11 kts | 81° |
| 2026-04-07 20:52 | 51.14534 | -0.21068 | 214 ft | 8 kts | 78° |
| 2026-04-07 20:52 | 51.14563 | -0.20850 | 212 ft | 43 kts | 78° |
| 2026-04-07 20:52 | 51.14678 | -0.20017 | 212 ft | 112 kts | 77° |
| 2026-04-07 20:53 | 51.14890 | -0.18480 | 225 ft | 169 kts | 78° |
| 2026-04-07 20:53 | 51.15146 | -0.16627 | 842 ft | 173 kts | 78° |
| 2026-04-07 20:53 | 51.15415 | -0.14735 | 1606 ft | 176 kts | 81° |
| 2026-04-07 20:53 | 51.15695 | -0.12812 | 1995 ft | 183 kts | 83° |
| 2026-04-07 20:54 | 51.15980 | -0.10785 | 2284 ft | 190 kts | 83° |
| 2026-04-07 20:54 | 51.16266 | -0.08620 | 2396 ft | 209 kts | 83° |
| 2026-04-07 20:54 | 51.16577 | -0.06253 | 2502 ft | 227 kts | 82° |
| 2026-04-07 20:54 | 51.16893 | -0.03735 | 2642 ft | 242 kts | 86° |
| 2026-04-07 20:55 | 51.16937 | -0.01002 | 2884 ft | 253 kts | 95° |
| 2026-04-07 20:55 | 51.16855 | 0.01842 | 3201 ft | 261 kts | 95° |
| 2026-04-07 20:55 | 51.16773 | 0.04769 | 3657 ft | 267 kts | 94° |
| 2026-04-07 20:55 | 51.16704 | 0.07734 | 4185 ft | 269 kts | 94° |
| 2026-04-07 20:56 | 51.16642 | 0.10725 | 4710 ft | 272 kts | 94° |
| 2026-04-07 20:56 | 51.16583 | 0.13753 | 5180 ft | 275 kts | 93° |
| 2026-04-07 20:56 | 51.16539 | 0.16811 | 5693 ft | 277 kts | 91° |
| 2026-04-07 20:56 | 51.16546 | 0.19895 | 6109 ft | 280 kts | 90° |
| 2026-04-07 20:57 | 51.16562 | 0.22944 | 6437 ft | 278 kts | 91° |
| 2026-04-07 20:57 | 51.16573 | 0.26052 | 6863 ft | 283 kts | 91° |
| 2026-04-07 20:57 | 51.16580 | 0.29194 | 7338 ft | 284 kts | 91° |
| 2026-04-07 20:57 | 51.16586 | 0.32353 | 7837 ft | 286 kts | 91° |
| 2026-04-07 20:58 | 51.16590 | 0.35526 | 8333 ft | 287 kts | 91° |
| 2026-04-07 20:58 | 51.16594 | 0.38714 | 8829 ft | 288 kts | 91° |
| 2026-04-07 20:58 | 51.16597 | 0.41916 | 9321 ft | 290 kts | 91° |
| 2026-04-07 20:58 | 51.16599 | 0.45126 | 9803 ft | 292 kts | 91° |
| 2026-04-07 20:59 | 51.16599 | 0.48336 | 10219 ft | 294 kts | 91° |
| 2026-04-07 20:59 | 51.16598 | 0.51676 | 10355 ft | 309 kts | 91° |
| 2026-04-07 20:59 | 51.16596 | 0.55188 | 10491 ft | 325 kts | 91° |
| 2026-04-07 20:59 | 51.16593 | 0.58885 | 10632 ft | 342 kts | 91° |
| 2026-04-07 21:00 | 51.16589 | 0.62775 | 10787 ft | 359 kts | 91° |
| 2026-04-07 21:00 | 51.16579 | 0.70971 | 11628 ft | 377 kts | 91° |
| 2026-04-07 21:00 | 51.16572 | 0.75169 | 12288 ft | 380 kts | 91° |
| 2026-04-07 21:01 | 51.16565 | 0.79394 | 13020 ft | 383 kts | 91° |
| 2026-04-07 21:01 | 51.16554 | 0.83646 | 13749 ft | 386 kts | 91° |
| 2026-04-07 21:01 | 51.16542 | 0.87878 | 14397 ft | 389 kts | 91° |
| 2026-04-07 21:01 | 51.16528 | 0.92218 | 15001 ft | 394 kts | 91° |
| 2026-04-07 21:02 | 51.16513 | 0.96611 | 15584 ft | 400 kts | 91° |
| 2026-04-07 21:02 | 51.16495 | 1.00941 | 16089 ft | 406 kts | 90° |
| 2026-04-07 21:02 | 51.16476 | 1.05472 | 16659 ft | 412 kts | 90° |
| 2026-04-07 21:02 | 51.16455 | 1.10049 | 17309 ft | 414 kts | 90° |
| 2026-04-07 21:03 | 51.16431 | 1.14649 | 17969 ft | 417 kts | 90° |
| 2026-04-07 21:03 | 51.16406 | 1.19298 | 18543 ft | 422 kts | 90° |
| 2026-04-07 21:03 | 51.16379 | 1.23999 | 19082 ft | 426 kts | 90° |
| 2026-04-07 21:03 | 51.16350 | 1.28675 | 19651 ft | 429 kts | 90° |
| 2026-04-07 21:04 | 51.16318 | 1.33439 | 20224 ft | 432 kts | 90° |
| 2026-04-07 21:04 | 51.16225 | 1.38230 | 20805 ft | 434 kts | 93° |
| 2026-04-07 21:04 | 51.16009 | 1.43047 | 21321 ft | 438 kts | 94° |
| 2026-04-07 21:04 | 51.15764 | 1.47898 | 21898 ft | 441 kts | 94° |
| 2026-04-07 21:05 | 51.15511 | 1.52772 | 22473 ft | 443 kts | 94° |
| 2026-04-07 21:05 | 51.15259 | 1.57677 | 22984 ft | 446 kts | 94° |
| 2026-04-07 21:05 | 51.15008 | 1.62620 | 23478 ft | 450 kts | 94° |
| 2026-04-07 21:05 | 51.14758 | 1.67603 | 23940 ft | 453 kts | 94° |
| 2026-04-07 21:06 | 51.14511 | 1.72543 | 24332 ft | 455 kts | 94° |
| 2026-04-07 21:06 | 51.14257 | 1.77585 | 24750 ft | 458 kts | 94° |
| 2026-04-07 21:06 | 51.14000 | 1.82640 | 25142 ft | 460 kts | 94° |
| 2026-04-07 21:06 | 51.13739 | 1.87726 | 25533 ft | 462 kts | 94° |
| 2026-04-07 21:07 | 51.13476 | 1.92840 | 25912 ft | 464 kts | 95° |
| 2026-04-07 21:07 | 51.13207 | 1.97981 | 26236 ft | 467 kts | 95° |
| 2026-04-07 21:07 | 51.12941 | 2.03027 | 26613 ft | 469 kts | 95° |
| 2026-04-07 21:07 | 51.12665 | 2.08208 | 26937 ft | 471 kts | 95° |
| 2026-04-07 21:08 | 51.12386 | 2.13429 | 27247 ft | 474 kts | 95° |
| 2026-04-07 21:08 | 51.12108 | 2.18587 | 27597 ft | 475 kts | 95° |
| 2026-04-07 21:08 | 51.11824 | 2.23841 | 27878 ft | 478 kts | 95° |
| 2026-04-07 21:08 | 51.11535 | 2.29127 | 28187 ft | 480 kts | 95° |
| 2026-04-07 21:09 | 51.11243 | 2.34422 | 28482 ft | 482 kts | 95° |
| 2026-04-07 21:09 | 51.10947 | 2.39753 | 28751 ft | 484 kts | 96° |
| 2026-04-07 21:09 | 51.10650 | 2.45074 | 29119 ft | 483 kts | 96° |
| 2026-04-07 21:09 | 51.10348 | 2.50409 | 29377 ft | 485 kts | 96° |
| 2026-04-07 21:10 | 51.10044 | 2.55766 | 29582 ft | 487 kts | 96° |
| 2026-04-07 21:10 | 51.09732 | 2.61148 | 29768 ft | 489 kts | 97° |
| 2026-04-07 21:10 | 51.09259 | 2.66444 | 29965 ft | 490 kts | 102° |
| 2026-04-07 21:10 | 51.08438 | 2.71703 | 30160 ft | 490 kts | 107° |
| 2026-04-07 21:11 | 51.07473 | 2.76909 | 30356 ft | 491 kts | 108° |
| 2026-04-07 21:11 | 51.06494 | 2.82110 | 30562 ft | 491 kts | 108° |
| 2026-04-07 21:11 | 51.05516 | 2.87316 | 30790 ft | 491 kts | 108° |
| 2026-04-07 21:11 | 51.04548 | 2.92509 | 31038 ft | 490 kts | 108° |
| 2026-04-07 21:12 | 51.03586 | 2.97703 | 31256 ft | 489 kts | 108° |
| 2026-04-07 21:12 | 51.02650 | 3.02782 | 31460 ft | 489 kts | 108° |
| 2026-04-07 21:12 | 51.01695 | 3.07965 | 31672 ft | 489 kts | 108° |
| 2026-04-07 21:12 | 51.00741 | 3.13144 | 31867 ft | 489 kts | 108° |
| 2026-04-07 21:13 | 50.99797 | 3.18253 | 32084 ft | 488 kts | 108° |
| 2026-04-07 21:13 | 50.98839 | 3.23419 | 32280 ft | 488 kts | 108° |
| 2026-04-07 21:13 | 50.97879 | 3.28582 | 32479 ft | 488 kts | 108° |
| 2026-04-07 21:13 | 50.96917 | 3.33742 | 32625 ft | 489 kts | 108° |
| 2026-04-07 21:14 | 50.95948 | 3.38918 | 32729 ft | 490 kts | 108° |
| 2026-04-07 21:14 | 50.94974 | 3.44105 | 32906 ft | 490 kts | 108° |
| 2026-04-07 21:14 | 50.94001 | 3.49276 | 33129 ft | 489 kts | 109° |
| 2026-04-07 21:15 | 50.92057 | 3.59566 | 33243 ft | 491 kts | 109° |
| 2026-04-07 21:15 | 50.90093 | 3.69906 | 33254 ft | 488 kts | 109° |
| 2026-04-07 21:16 | 50.88130 | 3.80182 | 33256 ft | 487 kts | 108° |
| 2026-04-07 21:16 | 50.86158 | 3.90445 | 33275 ft | 488 kts | 108° |
| 2026-04-07 21:17 | 50.84196 | 4.00603 | 33283 ft | 489 kts | 109° |
| 2026-04-07 21:17 | 50.82208 | 4.10845 | 33278 ft | 491 kts | 109° |
| 2026-04-07 21:18 | 50.80194 | 4.21161 | 33296 ft | 492 kts | 109° |
| 2026-04-07 21:18 | 50.78168 | 4.31489 | 33294 ft | 492 kts | 109° |
| 2026-04-07 21:19 | 50.76134 | 4.41798 | 33288 ft | 492 kts | 109° |
| 2026-04-07 21:19 | 50.74105 | 4.52033 | 33295 ft | 491 kts | 109° |
| 2026-04-07 21:20 | 50.72055 | 4.62314 | 33290 ft | 491 kts | 109° |
| 2026-04-07 21:20 | 50.69997 | 4.72581 | 33283 ft | 491 kts | 109° |
| 2026-04-07 21:21 | 50.67932 | 4.82842 | 33281 ft | 491 kts | 109° |
| 2026-04-07 21:21 | 50.65854 | 4.93104 | 33289 ft | 491 kts | 109° |
| 2026-04-07 21:22 | 50.63793 | 5.03194 | 33288 ft | 492 kts | 109° |
| 2026-04-07 21:22 | 50.61687 | 5.13447 | 33287 ft | 492 kts | 109° |
| 2026-04-07 21:23 | 50.59573 | 5.23697 | 33289 ft | 493 kts | 109° |
| 2026-04-07 21:23 | 50.57448 | 5.33959 | 33290 ft | 493 kts | 109° |
| 2026-04-07 21:24 | 50.55326 | 5.44148 | 33292 ft | 494 kts | 109° |
| 2026-04-07 21:24 | 50.53181 | 5.54407 | 33290 ft | 494 kts | 109° |
| 2026-04-07 21:25 | 50.51135 | 5.64710 | 33288 ft | 495 kts | 103° |
| 2026-04-07 21:25 | 50.49817 | 5.75307 | 33299 ft | 494 kts | 101° |
| 2026-04-07 21:26 | 50.48479 | 5.85825 | 33298 ft | 495 kts | 102° |
| 2026-04-07 21:26 | 50.47091 | 5.96397 | 33290 ft | 495 kts | 102° |
| 2026-04-07 21:27 | 50.45714 | 6.06843 | 33292 ft | 495 kts | 102° |
| 2026-04-07 21:27 | 50.44315 | 6.17425 | 33288 ft | 495 kts | 102° |
| 2026-04-07 21:28 | 50.42918 | 6.27928 | 33291 ft | 495 kts | 102° |
| 2026-04-07 21:28 | 50.41304 | 6.38426 | 33289 ft | 495 kts | 109° |
| 2026-04-07 21:29 | 50.38707 | 6.48397 | 33304 ft | 494 kts | 114° |
| 2026-04-07 21:29 | 50.35947 | 6.58281 | 33289 ft | 496 kts | 114° |
| 2026-04-07 21:30 | 50.33203 | 6.68191 | 33300 ft | 496 kts | 114° |
| 2026-04-07 21:30 | 50.30493 | 6.78047 | 33294 ft | 497 kts | 114° |
| 2026-04-07 21:31 | 50.27759 | 6.87979 | 33296 ft | 497 kts | 114° |
| 2026-04-07 21:31 | 50.25012 | 6.97912 | 33319 ft | 498 kts | 113° |
| 2026-04-07 21:32 | 50.22289 | 7.07713 | 33324 ft | 499 kts | 113° |
| 2026-04-07 21:32 | 50.19536 | 7.17579 | 33309 ft | 499 kts | 113° |
| 2026-04-07 21:33 | 50.16757 | 7.27496 | 33318 ft | 498 kts | 114° |
| 2026-04-07 21:33 | 50.13976 | 7.37375 | 33322 ft | 498 kts | 113° |
| 2026-04-07 21:34 | 50.11186 | 7.47247 | 33317 ft | 498 kts | 113° |
| 2026-04-07 21:34 | 50.08387 | 7.57111 | 33313 ft | 498 kts | 113° |
| 2026-04-07 21:35 | 50.05578 | 7.66967 | 33311 ft | 498 kts | 113° |
| 2026-04-07 21:35 | 50.02781 | 7.76744 | 33315 ft | 498 kts | 113° |
| 2026-04-07 21:36 | 49.99954 | 7.86584 | 33315 ft | 499 kts | 113° |
| 2026-04-07 21:36 | 49.97111 | 7.96438 | 33306 ft | 500 kts | 113° |
| 2026-04-07 21:37 | 49.94292 | 8.06170 | 33321 ft | 500 kts | 113° |
| 2026-04-07 21:37 | 49.91445 | 8.15956 | 33309 ft | 501 kts | 113° |
| 2026-04-07 21:38 | 49.88574 | 8.25785 | 33301 ft | 501 kts | 113° |
| 2026-04-07 21:38 | 49.85692 | 8.35616 | 33312 ft | 500 kts | 113° |
| 2026-04-07 21:39 | 49.82804 | 8.45423 | 33304 ft | 500 kts | 113° |
| 2026-04-07 21:39 | 49.79908 | 8.55218 | 33300 ft | 500 kts | 113° |
| 2026-04-07 21:40 | 49.77026 | 8.64927 | 33318 ft | 500 kts | 113° |
| 2026-04-07 21:40 | 49.74116 | 8.74691 | 33302 ft | 500 kts | 114° |
| 2026-04-07 21:41 | 49.71197 | 8.84446 | 33298 ft | 500 kts | 114° |
| 2026-04-07 21:41 | 49.68270 | 8.94189 | 33303 ft | 500 kts | 114° |
| 2026-04-07 21:42 | 49.65393 | 9.03728 | 33325 ft | 500 kts | 113° |
| 2026-04-07 21:42 | 49.62445 | 9.13466 | 33320 ft | 502 kts | 113° |
| 2026-04-07 21:43 | 49.59482 | 9.23212 | 33316 ft | 502 kts | 114° |
| 2026-04-07 21:43 | 49.56511 | 9.32945 | 33331 ft | 502 kts | 114° |
| 2026-04-07 21:44 | 49.53533 | 9.42662 | 33311 ft | 501 kts | 114° |
| 2026-04-07 21:44 | 49.50570 | 9.52294 | 33319 ft | 502 kts | 113° |
| 2026-04-07 21:45 | 49.47575 | 9.61992 | 33302 ft | 502 kts | 113° |
| 2026-04-07 21:45 | 49.44571 | 9.71682 | 33295 ft | 502 kts | 114° |
| 2026-04-07 21:46 | 49.41558 | 9.81362 | 33294 ft | 502 kts | 114° |
| 2026-04-07 21:46 | 49.38555 | 9.90974 | 33304 ft | 503 kts | 113° |
| 2026-04-07 21:47 | 49.35547 | 10.00563 | 33295 ft | 504 kts | 113° |
| 2026-04-07 21:47 | 49.32503 | 10.10231 | 33294 ft | 504 kts | 114° |
| 2026-04-07 21:48 | 49.29450 | 10.19893 | 33297 ft | 504 kts | 114° |
| 2026-04-07 21:48 | 49.26391 | 10.29536 | 33327 ft | 503 kts | 114° |
| 2026-04-07 21:49 | 49.22451 | 10.38270 | 33324 ft | 507 kts | 133° |
| 2026-04-07 21:49 | 49.16845 | 10.44771 | 33346 ft | 508 kts | 149° |
| 2026-04-07 21:50 | 49.10707 | 10.50150 | 33346 ft | 510 kts | 149° |
| 2026-04-07 21:50 | 49.04569 | 10.55606 | 33341 ft | 511 kts | 149° |
| 2026-04-07 21:51 | 48.98503 | 10.61099 | 33344 ft | 511 kts | 148° |
| 2026-04-07 21:51 | 48.92395 | 10.66634 | 33330 ft | 511 kts | 148° |
| 2026-04-07 21:52 | 48.86278 | 10.72149 | 33329 ft | 511 kts | 148° |
| 2026-04-07 21:52 | 48.80488 | 10.78363 | 33325 ft | 509 kts | 138° |
| 2026-04-07 21:53 | 48.75550 | 10.85900 | 33322 ft | 506 kts | 130° |
| 2026-04-07 21:53 | 48.70880 | 10.93871 | 33323 ft | 506 kts | 130° |
| 2026-04-07 21:54 | 48.66223 | 11.01739 | 33323 ft | 507 kts | 130° |
| 2026-04-07 21:54 | 48.61485 | 11.09653 | 33323 ft | 508 kts | 130° |
| 2026-04-07 21:55 | 48.56759 | 11.17504 | 33321 ft | 508 kts | 130° |
| 2026-04-07 21:55 | 48.51995 | 11.25399 | 33306 ft | 509 kts | 130° |
| 2026-04-07 21:56 | 48.47230 | 11.33273 | 33316 ft | 508 kts | 130° |
| 2026-04-07 21:56 | 48.42456 | 11.41140 | 33309 ft | 509 kts | 130° |
| 2026-04-07 21:57 | 48.37676 | 11.48995 | 33316 ft | 509 kts | 130° |
| 2026-04-07 21:57 | 48.32924 | 11.56781 | 33317 ft | 509 kts | 130° |
| 2026-04-07 21:58 | 48.28133 | 11.64611 | 33320 ft | 509 kts | 131° |
| 2026-04-07 21:58 | 48.23116 | 11.72130 | 33323 ft | 511 kts | 136° |
| 2026-04-07 21:59 | 48.17841 | 11.79301 | 33324 ft | 512 kts | 136° |
| 2026-04-07 21:59 | 48.13448 | 11.85256 | 33317 ft | 513 kts | 136° |
| 2026-04-07 22:00 | 48.07308 | 11.93621 | 33305 ft | 514 kts | 136° |
| 2026-04-07 22:00 | 48.02104 | 12.00716 | 33301 ft | 514 kts | 135° |
| 2026-04-07 22:01 | 47.97708 | 12.06694 | 33309 ft | 514 kts | 136° |
| 2026-04-07 22:01 | 47.92412 | 12.13873 | 33302 ft | 514 kts | 136° |
| 2026-04-07 22:02 | 47.86252 | 12.22194 | 33297 ft | 514 kts | 136° |
| 2026-04-07 22:02 | 47.81848 | 12.28127 | 33303 ft | 514 kts | 136° |
| 2026-04-07 22:03 | 47.76543 | 12.35256 | 33292 ft | 514 kts | 136° |
| 2026-04-07 22:03 | 47.67738 | 12.47043 | 33297 ft | 512 kts | 136° |
| 2026-04-07 22:04 | 47.62447 | 12.54102 | 33299 ft | 512 kts | 136° |
| 2026-04-07 22:04 | 47.58117 | 12.60087 | 33291 ft | 512 kts | 134° |
| 2026-04-07 22:05 | 47.52989 | 12.67411 | 33305 ft | 513 kts | 133° |
| 2026-04-07 22:05 | 47.47855 | 12.74731 | 33288 ft | 513 kts | 134° |
| 2026-04-07 22:06 | 47.42696 | 12.82014 | 33292 ft | 512 kts | 134° |
| 2026-04-07 22:06 | 47.37565 | 12.89212 | 33287 ft | 512 kts | 134° |
| 2026-04-07 22:07 | 47.32398 | 12.96435 | 33295 ft | 512 kts | 134° |
| 2026-04-07 22:07 | 47.27288 | 13.03565 | 33287 ft | 513 kts | 134° |
| 2026-04-07 22:08 | 47.22101 | 13.10780 | 33258 ft | 513 kts | 134° |
| 2026-04-07 22:08 | 47.16949 | 13.17927 | 33259 ft | 513 kts | 134° |
| 2026-04-07 22:09 | 47.11762 | 13.25104 | 33249 ft | 512 kts | 134° |
| 2026-04-07 22:09 | 47.06567 | 13.32271 | 33230 ft | 513 kts | 134° |
| 2026-04-07 22:10 | 47.01352 | 13.39446 | 33211 ft | 515 kts | 134° |
| 2026-04-07 22:10 | 46.96161 | 13.46567 | 33234 ft | 515 kts | 134° |
| 2026-04-07 22:11 | 46.90921 | 13.53735 | 33194 ft | 516 kts | 134° |
| 2026-04-07 22:11 | 46.85675 | 13.60891 | 33211 ft | 517 kts | 134° |
| 2026-04-07 22:12 | 46.80404 | 13.68061 | 33169 ft | 518 kts | 134° |
| 2026-04-07 22:12 | 46.75129 | 13.75216 | 33184 ft | 519 kts | 134° |
| 2026-04-07 22:13 | 46.69878 | 13.82324 | 33188 ft | 518 kts | 134° |
| 2026-04-07 22:13 | 46.64595 | 13.89450 | 33202 ft | 516 kts | 134° |
| 2026-04-07 22:14 | 46.59313 | 13.96552 | 33196 ft | 518 kts | 134° |
| 2026-04-07 22:14 | 46.54118 | 14.03523 | 33199 ft | 520 kts | 134° |
| 2026-04-07 22:15 | 46.48794 | 14.10645 | 33187 ft | 520 kts | 134° |
| 2026-04-07 22:15 | 46.43471 | 14.17746 | 33340 ft | 521 kts | 134° |
| 2026-04-07 22:16 | 46.40809 | 14.21289 | 33647 ft | 518 kts | 134° |
| 2026-04-07 22:16 | 46.38160 | 14.24809 | 33916 ft | 516 kts | 134° |
| 2026-04-07 22:16 | 46.35551 | 14.28271 | 34128 ft | 515 kts | 134° |
| 2026-04-07 22:16 | 46.32910 | 14.31771 | 34305 ft | 515 kts | 134° |
| 2026-04-07 22:17 | 46.30269 | 14.35271 | 34471 ft | 515 kts | 134° |
| 2026-04-07 22:17 | 46.27630 | 14.38763 | 34666 ft | 514 kts | 134° |
| 2026-04-07 22:17 | 46.24993 | 14.42246 | 34884 ft | 512 kts | 134° |
| 2026-04-07 22:17 | 46.22368 | 14.45707 | 35101 ft | 511 kts | 134° |
| 2026-04-07 22:18 | 46.17101 | 14.52639 | 35178 ft | 514 kts | 135° |
| 2026-04-07 22:18 | 46.11807 | 14.59588 | 35178 ft | 514 kts | 135° |
| 2026-04-07 22:19 | 46.06561 | 14.66451 | 35194 ft | 513 kts | 135° |
| 2026-04-07 22:19 | 46.01277 | 14.73349 | 35173 ft | 513 kts | 135° |
| 2026-04-07 22:20 | 45.96014 | 14.80200 | 35202 ft | 512 kts | 135° |
| 2026-04-07 22:20 | 45.90734 | 14.87056 | 35195 ft | 511 kts | 135° |
| 2026-04-07 22:21 | 45.85486 | 14.93853 | 35192 ft | 512 kts | 135° |
| 2026-04-07 22:21 | 45.80245 | 15.00622 | 35193 ft | 512 kts | 135° |
| 2026-04-07 22:22 | 45.74944 | 15.07451 | 35218 ft | 513 kts | 135° |
| 2026-04-07 22:22 | 45.69631 | 15.14277 | 35208 ft | 514 kts | 135° |
| 2026-04-07 22:23 | 45.64342 | 15.21055 | 35197 ft | 514 kts | 136° |
| 2026-04-07 22:23 | 45.59012 | 15.27869 | 35194 ft | 514 kts | 136° |
| 2026-04-07 22:24 | 45.53645 | 15.34616 | 35195 ft | 514 kts | 137° |
| 2026-04-07 22:24 | 45.48218 | 15.41240 | 35188 ft | 513 kts | 137° |
| 2026-04-07 22:25 | 45.42837 | 15.47782 | 35189 ft | 511 kts | 137° |
| 2026-04-07 22:25 | 45.37440 | 15.54354 | 35192 ft | 510 kts | 137° |
| 2026-04-07 22:26 | 45.32055 | 15.60912 | 35197 ft | 510 kts | 137° |
| 2026-04-07 22:26 | 45.26669 | 15.67456 | 35186 ft | 509 kts | 138° |
| 2026-04-07 22:27 | 45.21328 | 15.73926 | 35186 ft | 507 kts | 138° |
| 2026-04-07 22:27 | 45.15965 | 15.80404 | 35187 ft | 506 kts | 138° |
| 2026-04-07 22:28 | 45.10606 | 15.86863 | 35190 ft | 506 kts | 138° |
| 2026-04-07 22:28 | 45.05246 | 15.93305 | 35208 ft | 506 kts | 138° |
| 2026-04-07 22:29 | 44.99914 | 15.99698 | 35188 ft | 507 kts | 138° |
| 2026-04-07 22:29 | 44.94586 | 16.06070 | 35188 ft | 508 kts | 138° |
| 2026-04-07 22:30 | 44.89187 | 16.12510 | 35188 ft | 508 kts | 138° |
| 2026-04-07 22:30 | 44.83785 | 16.18937 | 35206 ft | 509 kts | 138° |
| 2026-04-07 22:31 | 44.78364 | 16.25371 | 35195 ft | 510 kts | 138° |
| 2026-04-07 22:31 | 44.72970 | 16.31756 | 35200 ft | 510 kts | 138° |
| 2026-04-07 22:32 | 44.67533 | 16.38176 | 35186 ft | 511 kts | 139° |
| 2026-04-07 22:32 | 44.62091 | 16.44585 | 35201 ft | 511 kts | 139° |
| 2026-04-07 22:33 | 44.56641 | 16.50988 | 35172 ft | 511 kts | 139° |
| 2026-04-07 22:33 | 44.51234 | 16.57325 | 35192 ft | 509 kts | 139° |
| 2026-04-07 22:34 | 44.45798 | 16.63680 | 35185 ft | 509 kts | 139° |
| 2026-04-07 22:34 | 44.40369 | 16.70011 | 35209 ft | 508 kts | 139° |
| 2026-04-07 22:35 | 44.34940 | 16.76328 | 35196 ft | 508 kts | 139° |
| 2026-04-07 22:35 | 44.29543 | 16.82591 | 35184 ft | 507 kts | 139° |
| 2026-04-07 22:36 | 44.24114 | 16.88869 | 35195 ft | 507 kts | 139° |
| 2026-04-07 22:36 | 44.18682 | 16.95135 | 35188 ft | 507 kts | 139° |
| 2026-04-07 22:37 | 44.13315 | 17.01314 | 35199 ft | 507 kts | 140° |
| 2026-04-07 22:37 | 44.07904 | 17.07531 | 35178 ft | 508 kts | 140° |
| 2026-04-07 22:38 | 44.02457 | 17.13772 | 35192 ft | 507 kts | 140° |
| 2026-04-07 22:38 | 43.97018 | 17.19990 | 35194 ft | 507 kts | 140° |
| 2026-04-07 22:39 | 43.91559 | 17.26215 | 35198 ft | 508 kts | 140° |
| 2026-04-07 22:39 | 43.86127 | 17.32394 | 35169 ft | 509 kts | 140° |
| 2026-04-07 22:40 | 43.80653 | 17.38605 | 35187 ft | 509 kts | 140° |
| 2026-04-07 22:40 | 43.75175 | 17.44806 | 35175 ft | 509 kts | 140° |
| 2026-04-07 22:41 | 43.69697 | 17.50993 | 35171 ft | 509 kts | 140° |
| 2026-04-07 22:41 | 43.64244 | 17.57137 | 35169 ft | 509 kts | 140° |
| 2026-04-07 22:42 | 43.58750 | 17.63313 | 35164 ft | 509 kts | 140° |
| 2026-04-07 22:42 | 43.53134 | 17.69250 | 35161 ft | 508 kts | 144° |
| 2026-04-07 22:43 | 43.47319 | 17.74766 | 35182 ft | 508 kts | 145° |
| 2026-04-07 22:43 | 43.41521 | 17.80234 | 35166 ft | 509 kts | 145° |
| 2026-04-07 22:44 | 43.35682 | 17.85764 | 35135 ft | 510 kts | 145° |
| 2026-04-07 22:44 | 43.29842 | 17.91305 | 35118 ft | 511 kts | 145° |
| 2026-04-07 22:45 | 43.23990 | 17.96848 | 35136 ft | 511 kts | 145° |
| 2026-04-07 22:45 | 43.18256 | 18.02265 | 35143 ft | 512 kts | 145° |
| 2026-04-07 22:46 | 43.12392 | 18.07789 | 35160 ft | 511 kts | 145° |
| 2026-04-07 22:46 | 43.06536 | 18.13293 | 35164 ft | 511 kts | 145° |
| 2026-04-07 22:47 | 43.00681 | 18.18783 | 35181 ft | 510 kts | 145° |
| 2026-04-07 22:47 | 42.94849 | 18.24239 | 35174 ft | 509 kts | 146° |
| 2026-04-07 22:48 | 42.89046 | 18.29655 | 35171 ft | 508 kts | 146° |
| 2026-04-07 22:48 | 42.83213 | 18.35086 | 35171 ft | 508 kts | 146° |
| 2026-04-07 22:49 | 42.77381 | 18.40504 | 35166 ft | 507 kts | 146° |
| 2026-04-07 22:49 | 42.71545 | 18.45913 | 35174 ft | 508 kts | 146° |
| 2026-04-07 22:50 | 42.65742 | 18.51278 | 35169 ft | 508 kts | 146° |
| 2026-04-07 22:50 | 42.59891 | 18.56677 | 35164 ft | 508 kts | 146° |
| 2026-04-07 22:51 | 42.54038 | 18.62064 | 35156 ft | 508 kts | 146° |
| 2026-04-07 22:51 | 42.48187 | 18.67437 | 35140 ft | 508 kts | 146° |
| 2026-04-07 22:52 | 42.42382 | 18.72756 | 35156 ft | 507 kts | 146° |
| 2026-04-07 22:52 | 42.36547 | 18.78090 | 35173 ft | 506 kts | 146° |
| 2026-04-07 22:53 | 42.30703 | 18.83420 | 35165 ft | 507 kts | 146° |
| 2026-04-07 22:53 | 42.24858 | 18.88739 | 35160 ft | 507 kts | 146° |
| 2026-04-07 22:54 | 42.19050 | 18.94012 | 35166 ft | 506 kts | 146° |
| 2026-04-07 22:54 | 42.13210 | 18.99302 | 35168 ft | 506 kts | 146° |
| 2026-04-07 22:55 | 42.07442 | 19.04516 | 35167 ft | 505 kts | 146° |
| 2026-04-07 22:55 | 42.01603 | 19.09782 | 35168 ft | 505 kts | 146° |
| 2026-04-07 22:56 | 41.95819 | 19.14986 | 35174 ft | 504 kts | 147° |
| 2026-04-07 22:56 | 41.89989 | 19.20221 | 35167 ft | 504 kts | 147° |
| 2026-04-07 22:57 | 41.84164 | 19.25441 | 35169 ft | 503 kts | 147° |
| 2026-04-07 22:57 | 41.78339 | 19.30648 | 35162 ft | 503 kts | 147° |
| 2026-04-07 22:58 | 41.72361 | 19.35475 | 35162 ft | 501 kts | 150° |
| 2026-04-07 22:58 | 41.66351 | 19.40071 | 35155 ft | 501 kts | 151° |
| 2026-04-07 22:59 | 41.60302 | 19.44695 | 35153 ft | 500 kts | 150° |
| 2026-04-07 22:59 | 41.54263 | 19.49333 | 35155 ft | 501 kts | 150° |
| 2026-04-07 23:00 | 41.48227 | 19.53972 | 35159 ft | 500 kts | 150° |
| 2026-04-07 23:00 | 41.42237 | 19.58568 | 35160 ft | 500 kts | 150° |
| 2026-04-07 23:01 | 41.36204 | 19.63184 | 35159 ft | 500 kts | 150° |
| 2026-04-07 23:02 | 41.27154 | 19.70089 | 35150 ft | 499 kts | 150° |
| 2026-04-07 23:02 | 41.21175 | 19.74639 | 35157 ft | 498 kts | 150° |
| 2026-04-07 23:03 | 41.15162 | 19.79203 | 35159 ft | 498 kts | 150° |
| 2026-04-07 23:03 | 41.09146 | 19.83762 | 35170 ft | 498 kts | 151° |
| 2026-04-07 23:04 | 41.03122 | 19.88317 | 35169 ft | 499 kts | 151° |
| 2026-04-07 23:04 | 40.97144 | 19.92827 | 35166 ft | 499 kts | 151° |
| 2026-04-07 23:05 | 40.91111 | 19.97369 | 35172 ft | 499 kts | 151° |
| 2026-04-07 23:05 | 40.85149 | 20.01848 | 35177 ft | 499 kts | 151° |
| 2026-04-07 23:06 | 40.79111 | 20.06376 | 35177 ft | 499 kts | 151° |
| 2026-04-07 23:06 | 40.73117 | 20.10860 | 35176 ft | 498 kts | 151° |
| 2026-04-07 23:07 | 40.67086 | 20.15362 | 35197 ft | 498 kts | 151° |
| 2026-04-07 23:07 | 40.61047 | 20.19861 | 35168 ft | 499 kts | 151° |
| 2026-04-07 23:08 | 40.55007 | 20.24351 | 35182 ft | 498 kts | 151° |
| 2026-04-07 23:08 | 40.48977 | 20.28825 | 35189 ft | 498 kts | 151° |
| 2026-04-07 23:09 | 40.42981 | 20.33265 | 35185 ft | 498 kts | 151° |
| 2026-04-07 23:09 | 40.36945 | 20.37725 | 35190 ft | 498 kts | 151° |
| 2026-04-07 23:10 | 40.30908 | 20.42176 | 35189 ft | 498 kts | 151° |
| 2026-04-07 23:10 | 40.24871 | 20.46618 | 35184 ft | 497 kts | 151° |
| 2026-04-07 23:11 | 40.18880 | 20.51018 | 35195 ft | 497 kts | 151° |
| 2026-04-07 23:11 | 40.12850 | 20.55439 | 35190 ft | 497 kts | 151° |
| 2026-04-07 23:12 | 40.06823 | 20.59846 | 35194 ft | 496 kts | 152° |
| 2026-04-07 23:12 | 40.00719 | 20.64034 | 35187 ft | 495 kts | 154° |
| 2026-04-07 23:13 | 39.94620 | 20.68042 | 35194 ft | 495 kts | 154° |
| 2026-04-07 23:13 | 39.88474 | 20.72095 | 35187 ft | 495 kts | 153° |
| 2026-04-07 23:14 | 39.82349 | 20.76166 | 35183 ft | 494 kts | 153° |
| 2026-04-07 23:14 | 39.76234 | 20.80236 | 35183 ft | 493 kts | 153° |
| 2026-04-07 23:15 | 39.70162 | 20.84271 | 35184 ft | 493 kts | 153° |
| 2026-04-07 23:15 | 39.64047 | 20.88323 | 35187 ft | 494 kts | 153° |
| 2026-04-07 23:16 | 39.57929 | 20.92367 | 35190 ft | 493 kts | 153° |
| 2026-04-07 23:16 | 39.51811 | 20.96403 | 35195 ft | 494 kts | 153° |
| 2026-04-07 23:17 | 39.45806 | 21.00358 | 35198 ft | 494 kts | 153° |
| 2026-04-07 23:17 | 39.39684 | 21.04382 | 35207 ft | 493 kts | 153° |
| 2026-04-07 23:18 | 39.33566 | 21.08395 | 35203 ft | 493 kts | 153° |
| 2026-04-07 23:18 | 39.27449 | 21.12400 | 35202 ft | 492 kts | 153° |
| 2026-04-07 23:19 | 39.21381 | 21.16365 | 35206 ft | 493 kts | 153° |
| 2026-04-07 23:19 | 39.15260 | 21.20356 | 35194 ft | 493 kts | 153° |
| 2026-04-07 23:20 | 39.09139 | 21.24340 | 35202 ft | 493 kts | 153° |
| 2026-04-07 23:20 | 39.03052 | 21.28294 | 35201 ft | 493 kts | 153° |
| 2026-04-07 23:21 | 38.96932 | 21.32261 | 35200 ft | 493 kts | 153° |
| 2026-04-07 23:21 | 38.90802 | 21.36228 | 35201 ft | 493 kts | 153° |
| 2026-04-07 23:22 | 38.84675 | 21.40185 | 35205 ft | 492 kts | 153° |
| 2026-04-07 23:22 | 38.78601 | 21.44101 | 35202 ft | 491 kts | 153° |
| 2026-04-07 23:23 | 38.72500 | 21.48028 | 35204 ft | 491 kts | 153° |
| 2026-04-07 23:23 | 38.66414 | 21.51994 | 35201 ft | 490 kts | 153° |
| 2026-04-07 23:24 | 38.60360 | 21.56022 | 35191 ft | 490 kts | 152° |
| 2026-04-07 23:24 | 38.54348 | 21.60018 | 35191 ft | 490 kts | 153° |
| 2026-04-07 23:25 | 38.48291 | 21.64023 | 35194 ft | 491 kts | 153° |
| 2026-04-07 23:25 | 38.42222 | 21.68021 | 35195 ft | 491 kts | 153° |
| 2026-04-07 23:26 | 38.36149 | 21.72013 | 35188 ft | 491 kts | 153° |
| 2026-04-07 23:26 | 38.30124 | 21.75967 | 35191 ft | 490 kts | 153° |
| 2026-04-07 23:27 | 38.24060 | 21.79940 | 35199 ft | 490 kts | 153° |
| 2026-04-07 23:27 | 38.17995 | 21.83906 | 35191 ft | 490 kts | 153° |
| 2026-04-07 23:28 | 38.11935 | 21.87860 | 35192 ft | 489 kts | 152° |
| 2026-04-07 23:28 | 38.05884 | 21.91802 | 35191 ft | 488 kts | 153° |
| 2026-04-07 23:29 | 37.99895 | 21.95696 | 35195 ft | 488 kts | 153° |
| 2026-04-07 23:29 | 37.93857 | 21.99615 | 35195 ft | 487 kts | 153° |
| 2026-04-07 23:30 | 37.87908 | 22.03468 | 35206 ft | 487 kts | 152° |
| 2026-04-07 23:30 | 37.81924 | 22.07338 | 35196 ft | 486 kts | 152° |
| 2026-04-07 23:31 | 37.75902 | 22.11225 | 35208 ft | 486 kts | 153° |
| 2026-04-07 23:31 | 37.69875 | 22.15107 | 35212 ft | 486 kts | 153° |
| 2026-04-07 23:32 | 37.63849 | 22.18983 | 35207 ft | 486 kts | 152° |
| 2026-04-07 23:32 | 37.57813 | 22.22858 | 35198 ft | 487 kts | 152° |
| 2026-04-07 23:33 | 37.51815 | 22.26701 | 35205 ft | 487 kts | 153° |
| 2026-04-07 23:33 | 37.45776 | 22.30565 | 35205 ft | 487 kts | 153° |
| 2026-04-07 23:34 | 37.39735 | 22.34424 | 35178 ft | 487 kts | 152° |
| 2026-04-07 23:34 | 37.33713 | 22.38317 | 35182 ft | 486 kts | 152° |
| 2026-04-07 23:35 | 37.27753 | 22.42197 | 35184 ft | 486 kts | 152° |
| 2026-04-07 23:35 | 37.21751 | 22.46094 | 35170 ft | 485 kts | 152° |
| 2026-04-07 23:36 | 37.15737 | 22.49991 | 35171 ft | 488 kts | 152° |
| 2026-04-07 23:36 | 37.09689 | 22.53890 | 35173 ft | 489 kts | 152° |
| 2026-04-07 23:37 | 37.03680 | 22.57760 | 35151 ft | 489 kts | 152° |
| 2026-04-07 23:37 | 36.97649 | 22.61639 | 35134 ft | 488 kts | 152° |
| 2026-04-07 23:38 | 36.91626 | 22.65506 | 35151 ft | 486 kts | 152° |
| 2026-04-07 23:38 | 36.85619 | 22.69356 | 35146 ft | 485 kts | 152° |
| 2026-04-07 23:39 | 36.79659 | 22.73169 | 35136 ft | 484 kts | 152° |
| 2026-04-07 23:39 | 36.73669 | 22.76994 | 35135 ft | 484 kts | 152° |
| 2026-04-07 23:40 | 36.67673 | 22.80817 | 35130 ft | 484 kts | 152° |
| 2026-04-07 23:40 | 36.61672 | 22.84635 | 35144 ft | 485 kts | 152° |
| 2026-04-07 23:41 | 36.55704 | 22.88426 | 35136 ft | 485 kts | 152° |
| 2026-04-07 23:41 | 36.49693 | 22.92239 | 35124 ft | 485 kts | 152° |
| 2026-04-07 23:42 | 36.43674 | 22.96051 | 35124 ft | 486 kts | 152° |
| 2026-04-07 23:42 | 36.37645 | 22.99860 | 35139 ft | 487 kts | 152° |
| 2026-04-07 23:43 | 36.31730 | 23.03590 | 35125 ft | 489 kts | 152° |
| 2026-04-07 23:43 | 36.25653 | 23.07409 | 35144 ft | 490 kts | 152° |
| 2026-04-07 23:44 | 36.19565 | 23.11240 | 35124 ft | 491 kts | 152° |
| 2026-04-07 23:44 | 36.13476 | 23.15071 | 35127 ft | 491 kts | 152° |
| 2026-04-07 23:45 | 36.07421 | 23.18858 | 35148 ft | 491 kts | 152° |
| 2026-04-07 23:45 | 36.01331 | 23.22670 | 35133 ft | 491 kts | 152° |
| 2026-04-07 23:46 | 35.95238 | 23.26475 | 35136 ft | 492 kts | 152° |
| 2026-04-07 23:46 | 35.89123 | 23.30281 | 35139 ft | 493 kts | 152° |
| 2026-04-07 23:47 | 35.83023 | 23.34073 | 35148 ft | 495 kts | 152° |
| 2026-04-07 23:47 | 35.76870 | 23.37895 | 35151 ft | 496 kts | 152° |
| 2026-04-07 23:48 | 35.70695 | 23.41723 | 35158 ft | 498 kts | 152° |
| 2026-04-07 23:48 | 35.64507 | 23.45553 | 35160 ft | 498 kts | 152° |
| 2026-04-07 23:49 | 35.58367 | 23.49346 | 35167 ft | 497 kts | 152° |
| 2026-04-07 23:49 | 35.52213 | 23.53142 | 35178 ft | 493 kts | 153° |
| 2026-04-07 23:50 | 35.46110 | 23.56898 | 35170 ft | 489 kts | 153° |
| 2026-04-07 23:50 | 35.40050 | 23.60622 | 35182 ft | 486 kts | 153° |
| 2026-04-07 23:51 | 35.34002 | 23.64333 | 35181 ft | 486 kts | 153° |
| 2026-04-07 23:51 | 35.27990 | 23.68016 | 35169 ft | 490 kts | 153° |
| 2026-04-07 23:52 | 35.21853 | 23.71769 | 35182 ft | 496 kts | 153° |
| 2026-04-07 23:52 | 35.15640 | 23.75563 | 35183 ft | 500 kts | 153° |
| 2026-04-07 23:53 | 35.09568 | 23.79262 | 35164 ft | 483 kts | 153° |
| 2026-04-07 23:53 | 35.03566 | 23.82913 | 35168 ft | 483 kts | 153° |
| 2026-04-07 23:54 | 34.97500 | 23.86598 | 35179 ft | 491 kts | 153° |
| 2026-04-07 23:54 | 34.91333 | 23.90338 | 35172 ft | 498 kts | 153° |
| 2026-04-07 23:55 | 34.85131 | 23.94092 | 35173 ft | 503 kts | 153° |
| 2026-04-07 23:55 | 34.78847 | 23.97889 | 35177 ft | 506 kts | 153° |
| 2026-04-07 23:56 | 34.72619 | 24.01646 | 35170 ft | 507 kts | 153° |
| 2026-04-07 23:56 | 34.66303 | 24.05450 | 35182 ft | 507 kts | 153° |
| 2026-04-07 23:57 | 34.60035 | 24.09218 | 35180 ft | 505 kts | 153° |
| 2026-04-07 23:57 | 34.53748 | 24.12992 | 35181 ft | 503 kts | 153° |
| 2026-04-07 23:58 | 34.47486 | 24.16744 | 35173 ft | 501 kts | 153° |
| 2026-04-07 23:58 | 34.41242 | 24.20479 | 35183 ft | 500 kts | 153° |
| 2026-04-07 23:59 | 34.35043 | 24.24181 | 35185 ft | 500 kts | 153° |
| 2026-04-07 23:59 | 34.28799 | 24.27904 | 35187 ft | 501 kts | 153° |
| 2026-04-08 00:00 | 34.22544 | 24.31628 | 35184 ft | 501 kts | 154° |
| 2026-04-08 00:00 | 34.16281 | 24.35350 | 35188 ft | 502 kts | 154° |
| 2026-04-08 00:01 | 34.10049 | 24.39048 | 35200 ft | 503 kts | 154° |
| 2026-04-08 00:01 | 34.03771 | 24.42773 | 35193 ft | 503 kts | 153° |
| 2026-04-08 00:02 | 33.97872 | 24.47259 | 35193 ft | 502 kts | 142° |
| 2026-04-08 00:02 | 33.92635 | 24.52782 | 35182 ft | 498 kts | 137° |
| 2026-04-08 00:03 | 33.87550 | 24.58338 | 35190 ft | 495 kts | 137° |
| 2026-04-08 00:03 | 33.79874 | 24.66629 | 35187 ft | 495 kts | 138° |
| 2026-04-08 00:04 | 33.74722 | 24.72145 | 35190 ft | 497 kts | 138° |
| 2026-04-08 00:04 | 33.69550 | 24.77669 | 35191 ft | 498 kts | 138° |
| 2026-04-08 00:05 | 33.64407 | 24.83155 | 35190 ft | 497 kts | 138° |
| 2026-04-08 00:05 | 33.59230 | 24.88670 | 35189 ft | 498 kts | 138° |
| 2026-04-08 00:06 | 33.54047 | 24.94183 | 35194 ft | 498 kts | 138° |
| 2026-04-08 00:06 | 33.48851 | 24.99700 | 35192 ft | 499 kts | 138° |
| 2026-04-08 00:07 | 33.43755 | 25.05102 | 35199 ft | 499 kts | 139° |
| 2026-04-08 00:07 | 33.38563 | 25.10597 | 35192 ft | 498 kts | 139° |
| 2026-04-08 00:08 | 33.33369 | 25.16085 | 35188 ft | 499 kts | 139° |
| 2026-04-08 00:08 | 33.28161 | 25.21577 | 35198 ft | 499 kts | 139° |
| 2026-04-08 00:09 | 33.22985 | 25.27028 | 35199 ft | 499 kts | 139° |
| 2026-04-08 00:09 | 33.17779 | 25.32501 | 35189 ft | 498 kts | 139° |
| 2026-04-08 00:10 | 33.12572 | 25.37967 | 35199 ft | 498 kts | 139° |
| 2026-04-08 00:10 | 33.07356 | 25.43432 | 35198 ft | 499 kts | 139° |
| 2026-04-08 00:11 | 33.02178 | 25.48849 | 35199 ft | 499 kts | 139° |
| 2026-04-08 00:11 | 32.96972 | 25.54287 | 35194 ft | 498 kts | 139° |
| 2026-04-08 00:12 | 32.91756 | 25.59725 | 35199 ft | 498 kts | 139° |
| 2026-04-08 00:12 | 32.86533 | 25.65163 | 35214 ft | 499 kts | 139° |
| 2026-04-08 00:13 | 32.81332 | 25.70568 | 35207 ft | 500 kts | 139° |
| 2026-04-08 00:13 | 32.76090 | 25.76008 | 35208 ft | 500 kts | 139° |
| 2026-04-08 00:14 | 32.70844 | 25.81442 | 35198 ft | 501 kts | 139° |
| 2026-04-08 00:14 | 32.65593 | 25.86873 | 35198 ft | 501 kts | 139° |
| 2026-04-08 00:15 | 32.60369 | 25.92268 | 35203 ft | 501 kts | 139° |
| 2026-04-08 00:15 | 32.55107 | 25.97692 | 35209 ft | 502 kts | 139° |
| 2026-04-08 00:16 | 32.49903 | 26.03049 | 35203 ft | 502 kts | 139° |
| 2026-04-08 00:16 | 32.44630 | 26.08468 | 35201 ft | 502 kts | 139° |
| 2026-04-08 00:17 | 32.39394 | 26.13840 | 35202 ft | 502 kts | 139° |
| 2026-04-08 00:17 | 32.34118 | 26.19245 | 35201 ft | 502 kts | 139° |
| 2026-04-08 00:18 | 32.28839 | 26.24644 | 35206 ft | 502 kts | 139° |
| 2026-04-08 00:18 | 32.23549 | 26.30046 | 35208 ft | 503 kts | 139° |
| 2026-04-08 00:19 | 32.18288 | 26.35408 | 35205 ft | 503 kts | 139° |
| 2026-04-08 00:19 | 32.12979 | 26.40812 | 35208 ft | 504 kts | 139° |
| 2026-04-08 00:20 | 32.07667 | 26.46211 | 35207 ft | 504 kts | 140° |
| 2026-04-08 00:20 | 32.02346 | 26.51610 | 35199 ft | 505 kts | 140° |
| 2026-04-08 00:21 | 31.97063 | 26.56961 | 35219 ft | 506 kts | 140° |
| 2026-04-08 00:21 | 31.91721 | 26.62364 | 35213 ft | 507 kts | 140° |
| 2026-04-08 00:22 | 31.86365 | 26.67772 | 35216 ft | 508 kts | 140° |
| 2026-04-08 00:22 | 31.81038 | 26.73144 | 35215 ft | 508 kts | 140° |
| 2026-04-08 00:23 | 31.75669 | 26.78548 | 35213 ft | 508 kts | 140° |
| 2026-04-08 00:23 | 31.70296 | 26.83949 | 35214 ft | 509 kts | 140° |
| 2026-04-08 00:24 | 31.64911 | 26.89352 | 35226 ft | 510 kts | 140° |
| 2026-04-08 00:24 | 31.59550 | 26.94724 | 35228 ft | 511 kts | 140° |
| 2026-04-08 00:25 | 31.54185 | 27.00091 | 35228 ft | 511 kts | 140° |
| 2026-04-08 00:25 | 31.48802 | 27.05467 | 35235 ft | 512 kts | 140° |
| 2026-04-08 00:26 | 31.43385 | 27.10870 | 35222 ft | 512 kts | 140° |
| 2026-04-08 00:26 | 31.37995 | 27.16239 | 35229 ft | 512 kts | 141° |
| 2026-04-08 00:27 | 31.32430 | 27.21441 | 35210 ft | 512 kts | 148° |
| 2026-04-08 00:27 | 31.26234 | 27.25480 | 35214 ft | 509 kts | 158° |
| 2026-04-08 00:28 | 31.19785 | 27.28890 | 35222 ft | 509 kts | 158° |
| 2026-04-08 00:28 | 31.13379 | 27.32315 | 35208 ft | 510 kts | 158° |
| 2026-04-08 00:29 | 31.06936 | 27.35812 | 35225 ft | 511 kts | 158° |
| 2026-04-08 00:29 | 31.00489 | 27.39312 | 35236 ft | 511 kts | 158° |
| 2026-04-08 00:30 | 30.94098 | 27.42955 | 35242 ft | 514 kts | 152° |
| 2026-04-08 00:30 | 30.88259 | 27.47701 | 35253 ft | 517 kts | 143° |
| 2026-04-08 00:31 | 30.82670 | 27.52982 | 35229 ft | 518 kts | 143° |
| 2026-04-08 00:31 | 30.77057 | 27.58254 | 35231 ft | 519 kts | 144° |
| 2026-04-08 00:32 | 30.71411 | 27.63494 | 35235 ft | 520 kts | 144° |
| 2026-04-08 00:32 | 30.65787 | 27.68684 | 35234 ft | 520 kts | 144° |
| 2026-04-08 00:33 | 30.60117 | 27.73909 | 35232 ft | 521 kts | 144° |
| 2026-04-08 00:33 | 30.54442 | 27.79134 | 35229 ft | 520 kts | 144° |
| 2026-04-08 00:34 | 30.48774 | 27.84348 | 35211 ft | 520 kts | 144° |
| 2026-04-08 00:34 | 30.43141 | 27.89519 | 35221 ft | 520 kts | 145° |
| 2026-04-08 00:35 | 30.37472 | 27.94716 | 35220 ft | 520 kts | 145° |
| 2026-04-08 00:35 | 30.31800 | 27.99907 | 35223 ft | 520 kts | 145° |
| 2026-04-08 00:36 | 30.26214 | 28.05014 | 35221 ft | 520 kts | 145° |
| 2026-04-08 00:36 | 30.20575 | 28.10160 | 35220 ft | 519 kts | 145° |
| 2026-04-08 00:37 | 30.14903 | 28.15329 | 35224 ft | 519 kts | 145° |
| 2026-04-08 00:37 | 30.09234 | 28.20487 | 35215 ft | 518 kts | 145° |
| 2026-04-08 00:38 | 30.03570 | 28.25633 | 35212 ft | 518 kts | 145° |
| 2026-04-08 00:38 | 29.97946 | 28.30736 | 35217 ft | 518 kts | 145° |
| 2026-04-08 00:39 | 29.92277 | 28.35873 | 35210 ft | 518 kts | 145° |
| 2026-04-08 00:39 | 29.86755 | 28.41225 | 35193 ft | 522 kts | 139° |
| 2026-04-08 00:40 | 29.82035 | 28.47555 | 35210 ft | 527 kts | 130° |
| 2026-04-08 00:40 | 29.77624 | 28.54311 | 35210 ft | 528 kts | 130° |
| 2026-04-08 00:41 | 29.73166 | 28.61045 | 35205 ft | 529 kts | 131° |
| 2026-04-08 00:41 | 29.68670 | 28.67742 | 35200 ft | 529 kts | 131° |
| 2026-04-08 00:42 | 29.64198 | 28.74394 | 35203 ft | 529 kts | 131° |
| 2026-04-08 00:42 | 29.59692 | 28.81091 | 35197 ft | 530 kts | 131° |
| 2026-04-08 00:43 | 29.55187 | 28.87781 | 35201 ft | 529 kts | 131° |
| 2026-04-08 00:43 | 29.50679 | 28.94465 | 35195 ft | 529 kts | 131° |
| 2026-04-08 00:44 | 29.46263 | 29.01004 | 35187 ft | 530 kts | 133° |
| 2026-04-08 00:44 | 29.41512 | 29.07433 | 35199 ft | 525 kts | 141° |
| 2026-04-08 00:45 | 29.35981 | 29.12792 | 35205 ft | 518 kts | 150° |
| 2026-04-08 00:45 | 29.30168 | 29.17700 | 35205 ft | 520 kts | 150° |
| 2026-04-08 00:46 | 29.24402 | 29.22633 | 35203 ft | 522 kts | 149° |
| 2026-04-08 00:46 | 29.18604 | 29.27647 | 35199 ft | 523 kts | 149° |
| 2026-04-08 00:47 | 29.12798 | 29.32657 | 35191 ft | 523 kts | 150° |
| 2026-04-08 00:47 | 29.06954 | 29.37590 | 35193 ft | 522 kts | 151° |
| 2026-04-08 00:48 | 29.01116 | 29.42415 | 35202 ft | 521 kts | 151° |
| 2026-04-08 00:48 | 28.95245 | 29.47265 | 35207 ft | 521 kts | 151° |
| 2026-04-08 00:49 | 28.89373 | 29.52128 | 35200 ft | 521 kts | 151° |
| 2026-04-08 00:49 | 28.83509 | 29.56989 | 35160 ft | 520 kts | 152° |
| 2026-04-08 00:50 | 28.77690 | 29.61805 | 35200 ft | 521 kts | 152° |
| 2026-04-08 00:50 | 28.71824 | 29.66650 | 35203 ft | 521 kts | 152° |
| 2026-04-08 00:51 | 28.65949 | 29.71494 | 35201 ft | 522 kts | 152° |
| 2026-04-08 00:51 | 28.60108 | 29.76305 | 35202 ft | 522 kts | 152° |
| 2026-04-08 00:52 | 28.54224 | 29.81146 | 35206 ft | 522 kts | 152° |
| 2026-04-08 00:52 | 28.48344 | 29.85978 | 35199 ft | 520 kts | 153° |
| 2026-04-08 00:53 | 28.42475 | 29.90792 | 35204 ft | 520 kts | 153° |
| 2026-04-08 00:53 | 28.36649 | 29.95562 | 35207 ft | 520 kts | 153° |
| 2026-04-08 00:54 | 28.30866 | 30.00292 | 35209 ft | 520 kts | 153° |
| 2026-04-08 00:54 | 28.24998 | 30.05084 | 35207 ft | 520 kts | 153° |
| 2026-04-08 00:55 | 28.19130 | 30.09871 | 35173 ft | 519 kts | 154° |
| 2026-04-08 00:55 | 28.13312 | 30.14612 | 35199 ft | 519 kts | 155° |
| 2026-04-08 00:56 | 28.07452 | 30.19378 | 35208 ft | 519 kts | 155° |
| 2026-04-08 00:56 | 28.01589 | 30.24139 | 35209 ft | 519 kts | 155° |
| 2026-04-08 00:57 | 27.95724 | 30.28897 | 35207 ft | 519 kts | 155° |
| 2026-04-08 00:57 | 27.89894 | 30.33620 | 35207 ft | 519 kts | 155° |
| 2026-04-08 00:58 | 27.84031 | 30.38365 | 35209 ft | 519 kts | 156° |
| 2026-04-08 00:58 | 27.78158 | 30.43110 | 35202 ft | 519 kts | 156° |
| 2026-04-08 00:59 | 27.72283 | 30.47848 | 35212 ft | 519 kts | 156° |
| 2026-04-08 00:59 | 27.66442 | 30.52554 | 35210 ft | 520 kts | 156° |
| 2026-04-08 01:00 | 27.60558 | 30.57289 | 35212 ft | 519 kts | 156° |
| 2026-04-08 01:00 | 27.54678 | 30.62017 | 35186 ft | 519 kts | 158° |
| 2026-04-08 01:01 | 27.48801 | 30.66733 | 35218 ft | 519 kts | 158° |
| 2026-04-08 01:01 | 27.42948 | 30.71421 | 35220 ft | 520 kts | 158° |
| 2026-04-08 01:02 | 27.37053 | 30.76140 | 35219 ft | 520 kts | 158° |
| 2026-04-08 01:02 | 27.31153 | 30.80857 | 35221 ft | 520 kts | 158° |
| 2026-04-08 01:03 | 27.25295 | 30.85533 | 35222 ft | 520 kts | 158° |
| 2026-04-08 01:04 | 27.16460 | 30.92577 | 35216 ft | 519 kts | 158° |
| 2026-04-08 01:04 | 27.10564 | 30.97268 | 35222 ft | 520 kts | 158° |
| 2026-04-08 01:05 | 27.04792 | 31.02010 | 35235 ft | 529 kts | 153° |
| 2026-04-08 01:05 | 26.99504 | 31.07887 | 35237 ft | 551 kts | 141° |
| 2026-04-08 01:06 | 26.94688 | 31.14599 | 35238 ft | 553 kts | 140° |
| 2026-04-08 01:06 | 26.89896 | 31.21349 | 35224 ft | 553 kts | 140° |
| 2026-04-08 01:07 | 26.85072 | 31.28044 | 35205 ft | 551 kts | 141° |
| 2026-04-08 01:07 | 26.80262 | 31.34645 | 35205 ft | 551 kts | 141° |
| 2026-04-08 01:08 | 26.75409 | 31.41282 | 35206 ft | 551 kts | 141° |
| 2026-04-08 01:08 | 26.70557 | 31.47917 | 35203 ft | 551 kts | 141° |
| 2026-04-08 01:09 | 26.66522 | 31.53431 | 35165 ft | 551 kts | 141° |
| 2026-04-08 01:09 | 26.60889 | 31.61124 | 35188 ft | 550 kts | 141° |
| 2026-04-08 01:10 | 26.56042 | 31.67730 | 35192 ft | 549 kts | 141° |
| 2026-04-08 01:10 | 26.52013 | 31.73213 | 35185 ft | 549 kts | 141° |
| 2026-04-08 01:11 | 26.47166 | 31.79800 | 35172 ft | 548 kts | 141° |
| 2026-04-08 01:11 | 26.41546 | 31.87426 | 35164 ft | 547 kts | 141° |
| 2026-04-08 01:12 | 26.36709 | 31.93978 | 35163 ft | 547 kts | 142° |
| 2026-04-08 01:12 | 26.32690 | 31.99414 | 35159 ft | 547 kts | 142° |
| 2026-04-08 01:13 | 26.27920 | 32.05860 | 35161 ft | 547 kts | 142° |
| 2026-04-08 01:13 | 26.22295 | 32.13450 | 35151 ft | 546 kts | 142° |
| 2026-04-08 01:14 | 26.18268 | 32.18874 | 35160 ft | 547 kts | 142° |
| 2026-04-08 01:14 | 26.13417 | 32.25398 | 35139 ft | 547 kts | 142° |
| 2026-04-08 01:15 | 26.08561 | 32.31925 | 35123 ft | 547 kts | 142° |
| 2026-04-08 01:15 | 26.03694 | 32.38451 | 35131 ft | 549 kts | 142° |
| 2026-04-08 01:16 | 25.98839 | 32.44951 | 35135 ft | 552 kts | 142° |
| 2026-04-08 01:16 | 25.93923 | 32.51528 | 35129 ft | 554 kts | 142° |
| 2026-04-08 01:17 | 25.88983 | 32.58128 | 35120 ft | 556 kts | 142° |
| 2026-04-08 01:17 | 25.84041 | 32.64727 | 35093 ft | 556 kts | 142° |
| 2026-04-08 01:18 | 25.79094 | 32.71320 | 35101 ft | 555 kts | 142° |
| 2026-04-08 01:18 | 25.74231 | 32.77925 | 35112 ft | 561 kts | 138° |
| 2026-04-08 01:19 | 25.69835 | 32.85178 | 35101 ft | 568 kts | 134° |
| 2026-04-08 01:19 | 25.65542 | 32.92536 | 35096 ft | 567 kts | 134° |
| 2026-04-08 01:20 | 25.61261 | 32.99784 | 35112 ft | 565 kts | 135° |
| 2026-04-08 01:20 | 25.56986 | 33.06931 | 35105 ft | 563 kts | 135° |
| 2026-04-08 01:21 | 25.52654 | 33.14149 | 35099 ft | 562 kts | 135° |
| 2026-04-08 01:21 | 25.48336 | 33.21340 | 35099 ft | 560 kts | 135° |
| 2026-04-08 01:22 | 25.44058 | 33.28460 | 35103 ft | 558 kts | 135° |
| 2026-04-08 01:22 | 25.39757 | 33.35605 | 35102 ft | 558 kts | 135° |
| 2026-04-08 01:23 | 25.35452 | 33.42747 | 35120 ft | 560 kts | 135° |
| 2026-04-08 01:23 | 25.33285 | 33.46337 | 35235 ft | 562 kts | 135° |
| 2026-04-08 01:23 | 25.31123 | 33.49921 | 35473 ft | 560 kts | 135° |
| 2026-04-08 01:23 | 25.28967 | 33.53493 | 35758 ft | 557 kts | 135° |
| 2026-04-08 01:24 | 25.26817 | 33.57047 | 35997 ft | 555 kts | 135° |
| 2026-04-08 01:24 | 25.24710 | 33.60530 | 36364 ft | 550 kts | 135° |
| 2026-04-08 01:24 | 25.22586 | 33.64032 | 36615 ft | 549 kts | 135° |
| 2026-04-08 01:24 | 25.20455 | 33.67539 | 36791 ft | 550 kts | 135° |
| 2026-04-08 01:25 | 25.18324 | 33.71041 | 36927 ft | 549 kts | 135° |
| 2026-04-08 01:25 | 25.16194 | 33.74542 | 37041 ft | 550 kts | 135° |
| 2026-04-08 01:25 | 25.14058 | 33.78050 | 37093 ft | 551 kts | 135° |
| 2026-04-08 01:26 | 25.09824 | 33.85010 | 37090 ft | 548 kts | 135° |
| 2026-04-08 01:26 | 25.05584 | 33.91974 | 37099 ft | 546 kts | 135° |
| 2026-04-08 01:27 | 25.01352 | 33.98907 | 37083 ft | 544 kts | 135° |
| 2026-04-08 01:27 | 24.97190 | 34.05712 | 37099 ft | 543 kts | 135° |
| 2026-04-08 01:28 | 24.92957 | 34.12621 | 37091 ft | 544 kts | 135° |
| 2026-04-08 01:28 | 24.88751 | 34.19483 | 37095 ft | 544 kts | 135° |
| 2026-04-08 01:29 | 24.84514 | 34.26385 | 37088 ft | 544 kts | 135° |
| 2026-04-08 01:29 | 24.80273 | 34.33283 | 37085 ft | 543 kts | 135° |
| 2026-04-08 01:30 | 24.76066 | 34.40117 | 37096 ft | 543 kts | 135° |
| 2026-04-08 01:30 | 24.71827 | 34.46991 | 37085 ft | 544 kts | 135° |
| 2026-04-08 01:31 | 24.67582 | 34.53867 | 37086 ft | 542 kts | 135° |
| 2026-04-08 01:31 | 24.63345 | 34.60722 | 37084 ft | 542 kts | 135° |
| 2026-04-08 01:32 | 24.59140 | 34.67514 | 37086 ft | 541 kts | 135° |
| 2026-04-08 01:32 | 24.54904 | 34.74344 | 37045 ft | 541 kts | 135° |
| 2026-04-08 01:33 | 24.50673 | 34.81159 | 37071 ft | 540 kts | 135° |
| 2026-04-08 01:33 | 24.46444 | 34.87961 | 37074 ft | 539 kts | 135° |
| 2026-04-08 01:34 | 24.42242 | 34.94711 | 37067 ft | 539 kts | 135° |
| 2026-04-08 01:34 | 24.38068 | 35.01402 | 37060 ft | 539 kts | 135° |
| 2026-04-08 01:35 | 24.33838 | 35.08178 | 37056 ft | 538 kts | 134° |
| 2026-04-08 01:35 | 24.29613 | 35.14937 | 37058 ft | 537 kts | 134° |
| 2026-04-08 01:36 | 24.25416 | 35.21640 | 37059 ft | 537 kts | 134° |
| 2026-04-08 01:36 | 24.21184 | 35.28391 | 37038 ft | 537 kts | 134° |
| 2026-04-08 01:37 | 24.16960 | 35.35121 | 37040 ft | 536 kts | 134° |
| 2026-04-08 01:37 | 24.12764 | 35.41796 | 37049 ft | 535 kts | 134° |
| 2026-04-08 01:38 | 24.08542 | 35.48503 | 37034 ft | 535 kts | 134° |
| 2026-04-08 01:38 | 24.04321 | 35.55201 | 37033 ft | 534 kts | 134° |
| 2026-04-08 01:39 | 24.00105 | 35.61883 | 37035 ft | 533 kts | 134° |
| 2026-04-08 01:39 | 23.95891 | 35.68552 | 37031 ft | 533 kts | 134° |
| 2026-04-08 01:40 | 23.91699 | 35.75174 | 37007 ft | 533 kts | 134° |
| 2026-04-08 01:40 | 23.87490 | 35.81819 | 37022 ft | 531 kts | 134° |
| 2026-04-08 01:41 | 23.83283 | 35.88453 | 37017 ft | 530 kts | 134° |
| 2026-04-08 01:41 | 23.79111 | 35.95025 | 37019 ft | 530 kts | 134° |
| 2026-04-08 01:42 | 23.74968 | 36.01539 | 37019 ft | 529 kts | 134° |
| 2026-04-08 01:42 | 23.70767 | 36.08137 | 37017 ft | 529 kts | 134° |
| 2026-04-08 01:43 | 23.66561 | 36.14734 | 37017 ft | 529 kts | 134° |
| 2026-04-08 01:43 | 23.62381 | 36.21283 | 37017 ft | 530 kts | 134° |
| 2026-04-08 01:44 | 23.58171 | 36.27869 | 36998 ft | 530 kts | 134° |
| 2026-04-08 01:44 | 23.53957 | 36.34454 | 37009 ft | 530 kts | 134° |
| 2026-04-08 01:45 | 23.49739 | 36.41037 | 37008 ft | 530 kts | 134° |
| 2026-04-08 01:45 | 23.45545 | 36.47574 | 37001 ft | 529 kts | 134° |
| 2026-04-08 01:46 | 23.41324 | 36.54145 | 37000 ft | 529 kts | 134° |
| 2026-04-08 01:46 | 23.37103 | 36.60706 | 37003 ft | 529 kts | 134° |
| 2026-04-08 01:47 | 23.32880 | 36.67263 | 36997 ft | 529 kts | 134° |
| 2026-04-08 01:47 | 23.28682 | 36.73772 | 36997 ft | 529 kts | 134° |
| 2026-04-08 01:48 | 23.24455 | 36.80318 | 36993 ft | 529 kts | 134° |
| 2026-04-08 01:48 | 23.20230 | 36.86854 | 36992 ft | 528 kts | 134° |
| 2026-04-08 01:49 | 23.16003 | 36.93384 | 36991 ft | 528 kts | 134° |
| 2026-04-08 01:49 | 23.11806 | 36.99859 | 36975 ft | 528 kts | 134° |
| 2026-04-08 01:50 | 23.07629 | 37.06297 | 36989 ft | 526 kts | 134° |
| 2026-04-08 01:50 | 23.03412 | 37.12788 | 36986 ft | 526 kts | 134° |
| 2026-04-08 01:51 | 22.99192 | 37.19254 | 36980 ft | 524 kts | 134° |
| 2026-04-08 01:51 | 22.94991 | 37.25644 | 36974 ft | 523 kts | 134° |
| 2026-04-08 01:52 | 22.90769 | 37.32060 | 36985 ft | 522 kts | 134° |
| 2026-04-08 01:52 | 22.86553 | 37.38467 | 36979 ft | 522 kts | 134° |
| 2026-04-08 01:53 | 22.82334 | 37.44874 | 36978 ft | 522 kts | 134° |
| 2026-04-08 01:53 | 22.78142 | 37.51232 | 36970 ft | 522 kts | 133° |
| 2026-04-08 01:54 | 22.73921 | 37.57627 | 36977 ft | 522 kts | 133° |
| 2026-04-08 01:54 | 22.69694 | 37.64025 | 36969 ft | 523 kts | 133° |
| 2026-04-08 01:55 | 22.65483 | 37.70446 | 36970 ft | 523 kts | 133° |
| 2026-04-08 01:55 | 22.61303 | 37.76832 | 36960 ft | 523 kts | 133° |
| 2026-04-08 01:56 | 22.57092 | 37.83254 | 36964 ft | 523 kts | 133° |
| 2026-04-08 01:56 | 22.52871 | 37.89677 | 36966 ft | 524 kts | 133° |
| 2026-04-08 01:57 | 22.48645 | 37.96098 | 36950 ft | 524 kts | 133° |
| 2026-04-08 01:57 | 22.44493 | 38.02401 | 36953 ft | 524 kts | 133° |
| 2026-04-08 01:58 | 22.40264 | 38.08812 | 36956 ft | 524 kts | 133° |
| 2026-04-08 01:58 | 22.36032 | 38.15221 | 36954 ft | 524 kts | 133° |
| 2026-04-08 01:59 | 22.31797 | 38.21628 | 36940 ft | 524 kts | 133° |
| 2026-04-08 01:59 | 22.27591 | 38.27980 | 36950 ft | 523 kts | 133° |
| 2026-04-08 02:00 | 22.23350 | 38.34361 | 36950 ft | 523 kts | 133° |
| 2026-04-08 02:00 | 22.19110 | 38.40737 | 36950 ft | 523 kts | 133° |
| 2026-04-08 02:01 | 22.12753 | 38.50284 | 36953 ft | 522 kts | 133° |
| 2026-04-08 02:01 | 22.08546 | 38.56596 | 36939 ft | 521 kts | 133° |
| 2026-04-08 02:02 | 22.04315 | 38.62935 | 36938 ft | 521 kts | 133° |
| 2026-04-08 02:02 | 22.00085 | 38.69265 | 36942 ft | 520 kts | 133° |
| 2026-04-08 02:03 | 21.95859 | 38.75581 | 36948 ft | 520 kts | 133° |
| 2026-04-08 02:03 | 21.91658 | 38.81852 | 36947 ft | 520 kts | 133° |
| 2026-04-08 02:04 | 21.87426 | 38.88165 | 36949 ft | 520 kts | 133° |
| 2026-04-08 02:04 | 21.83192 | 38.94471 | 36946 ft | 520 kts | 133° |
| 2026-04-08 02:05 | 21.79018 | 39.00684 | 36963 ft | 520 kts | 133° |
| 2026-04-08 02:05 | 21.74790 | 39.06917 | 36954 ft | 513 kts | 137° |
| 2026-04-08 02:06 | 21.72247 | 39.09482 | 36953 ft | 492 kts | 155° |
| 2026-04-08 02:06 | 21.69269 | 39.11132 | 36968 ft | 475 kts | 168° |
| 2026-04-08 02:06 | 21.66125 | 39.12063 | 36966 ft | 464 kts | 179° |
| 2026-04-08 02:06 | 21.62961 | 39.12254 | 36964 ft | 449 kts | 191° |
| 2026-04-08 02:07 | 21.56729 | 39.11974 | 36971 ft | 455 kts | 189° |
| 2026-04-08 02:07 | 21.50367 | 39.11769 | 36969 ft | 459 kts | 189° |
| 2026-04-08 02:08 | 21.43955 | 39.11604 | 36945 ft | 462 kts | 189° |
| 2026-04-08 02:08 | 21.37524 | 39.11449 | 36953 ft | 463 kts | 189° |
| 2026-04-08 02:09 | 21.31129 | 39.11293 | 36952 ft | 463 kts | 189° |
| 2026-04-08 02:09 | 21.24701 | 39.11135 | 36952 ft | 461 kts | 189° |
| 2026-04-08 02:10 | 21.18296 | 39.10976 | 36940 ft | 459 kts | 188° |
| 2026-04-08 02:10 | 21.11927 | 39.10818 | 36951 ft | 457 kts | 188° |
| 2026-04-08 02:11 | 21.05620 | 39.10661 | 36957 ft | 456 kts | 188° |
| 2026-04-08 02:11 | 20.99282 | 39.10503 | 36959 ft | 455 kts | 188° |
| 2026-04-08 02:12 | 20.92947 | 39.10346 | 36932 ft | 455 kts | 188° |
| 2026-04-08 02:12 | 20.86610 | 39.10188 | 36956 ft | 456 kts | 188° |
| 2026-04-08 02:13 | 20.80311 | 39.10032 | 36950 ft | 456 kts | 188° |
| 2026-04-08 02:13 | 20.73957 | 39.09875 | 36952 ft | 457 kts | 188° |
| 2026-04-08 02:14 | 20.67597 | 39.09717 | 36934 ft | 457 kts | 188° |
| 2026-04-08 02:14 | 20.61233 | 39.09554 | 36950 ft | 458 kts | 188° |
| 2026-04-08 02:15 | 20.54903 | 39.09392 | 36955 ft | 458 kts | 188° |
| 2026-04-08 02:15 | 20.48520 | 39.09229 | 36956 ft | 459 kts | 188° |
| 2026-04-08 02:16 | 20.42130 | 39.09067 | 36941 ft | 459 kts | 187° |
| 2026-04-08 02:16 | 20.35741 | 39.08905 | 36954 ft | 459 kts | 187° |
| 2026-04-08 02:17 | 20.29390 | 39.08743 | 36957 ft | 460 kts | 187° |
| 2026-04-08 02:17 | 20.22994 | 39.08581 | 36957 ft | 460 kts | 187° |
| 2026-04-08 02:18 | 20.16598 | 39.08419 | 36935 ft | 460 kts | 187° |
| 2026-04-08 02:18 | 20.10204 | 39.08257 | 36953 ft | 459 kts | 187° |
| 2026-04-08 02:19 | 20.03859 | 39.08097 | 36954 ft | 459 kts | 187° |
| 2026-04-08 02:19 | 19.97475 | 39.07935 | 36953 ft | 459 kts | 187° |
| 2026-04-08 02:20 | 19.91090 | 39.07774 | 36953 ft | 459 kts | 187° |
| 2026-04-08 02:20 | 19.84710 | 39.07613 | 36953 ft | 458 kts | 187° |
| 2026-04-08 02:21 | 19.78379 | 39.07453 | 36953 ft | 458 kts | 187° |
| 2026-04-08 02:21 | 19.72001 | 39.07292 | 36953 ft | 458 kts | 187° |
| 2026-04-08 02:22 | 19.65623 | 39.07131 | 36957 ft | 458 kts | 187° |
| 2026-04-08 02:22 | 19.59250 | 39.06971 | 36955 ft | 458 kts | 187° |
| 2026-04-08 02:23 | 19.52915 | 39.06811 | 36956 ft | 458 kts | 187° |
| 2026-04-08 02:23 | 19.46539 | 39.06651 | 36956 ft | 458 kts | 187° |
| 2026-04-08 02:24 | 19.40159 | 39.06491 | 36955 ft | 458 kts | 187° |
| 2026-04-08 02:24 | 19.33781 | 39.06331 | 36953 ft | 458 kts | 187° |
| 2026-04-08 02:25 | 19.27450 | 39.06172 | 36959 ft | 458 kts | 187° |
| 2026-04-08 02:25 | 19.21069 | 39.06012 | 36955 ft | 459 kts | 187° |
| 2026-04-08 02:26 | 19.14688 | 39.05852 | 36959 ft | 459 kts | 187° |
| 2026-04-08 02:26 | 19.08316 | 39.05622 | 36957 ft | 457 kts | 188° |
| 2026-04-08 02:27 | 19.02007 | 39.05251 | 36961 ft | 457 kts | 189° |
| 2026-04-08 02:27 | 18.95666 | 39.04869 | 36962 ft | 457 kts | 188° |
| 2026-04-08 02:28 | 18.89317 | 39.04506 | 36964 ft | 457 kts | 188° |
| 2026-04-08 02:28 | 18.82974 | 39.04153 | 36960 ft | 457 kts | 188° |
| 2026-04-08 02:29 | 18.76670 | 39.03805 | 36961 ft | 457 kts | 188° |
| 2026-04-08 02:29 | 18.70328 | 39.03455 | 36964 ft | 457 kts | 188° |
| 2026-04-08 02:30 | 18.63979 | 39.03103 | 36965 ft | 457 kts | 188° |
| 2026-04-08 02:30 | 18.57634 | 39.02752 | 36965 ft | 457 kts | 188° |
| 2026-04-08 02:31 | 18.51331 | 39.02404 | 36974 ft | 457 kts | 188° |
| 2026-04-08 02:31 | 18.44977 | 39.02053 | 36970 ft | 457 kts | 188° |
| 2026-04-08 02:32 | 18.38618 | 39.01702 | 36974 ft | 458 kts | 188° |
| 2026-04-08 02:32 | 18.32259 | 39.01351 | 36962 ft | 458 kts | 188° |
| 2026-04-08 02:33 | 18.25932 | 39.01003 | 36973 ft | 458 kts | 188° |
| 2026-04-08 02:33 | 18.19560 | 39.00652 | 36973 ft | 459 kts | 188° |
| 2026-04-08 02:34 | 18.13178 | 39.00333 | 36973 ft | 460 kts | 187° |
| 2026-04-08 02:34 | 18.06775 | 39.00109 | 36963 ft | 460 kts | 186° |
| 2026-04-08 02:35 | 18.00415 | 38.99895 | 36973 ft | 461 kts | 186° |
| 2026-04-08 02:35 | 17.94008 | 38.99668 | 36977 ft | 461 kts | 186° |
| 2026-04-08 02:36 | 17.87594 | 38.99434 | 36975 ft | 461 kts | 186° |
| 2026-04-08 02:36 | 17.81180 | 38.99200 | 36976 ft | 461 kts | 186° |
| 2026-04-08 02:37 | 17.74799 | 38.98967 | 36972 ft | 462 kts | 186° |
| 2026-04-08 02:37 | 17.68379 | 38.98733 | 36976 ft | 462 kts | 186° |
| 2026-04-08 02:38 | 17.61949 | 38.98499 | 36979 ft | 462 kts | 186° |
| 2026-04-08 02:38 | 17.55518 | 38.98266 | 36978 ft | 462 kts | 186° |
| 2026-04-08 02:39 | 17.49090 | 38.98032 | 36975 ft | 462 kts | 186° |
| 2026-04-08 02:39 | 17.42701 | 38.97800 | 36977 ft | 463 kts | 186° |
| 2026-04-08 02:40 | 17.36265 | 38.97567 | 36981 ft | 463 kts | 186° |
| 2026-04-08 02:40 | 17.29833 | 38.97333 | 36981 ft | 463 kts | 186° |
| 2026-04-08 02:41 | 17.23446 | 38.97101 | 36973 ft | 463 kts | 186° |
| 2026-04-08 02:41 | 17.17013 | 38.96868 | 36990 ft | 462 kts | 186° |
| 2026-04-08 02:42 | 17.10579 | 38.96635 | 36980 ft | 462 kts | 186° |
| 2026-04-08 02:42 | 17.04148 | 38.96402 | 36990 ft | 462 kts | 186° |
| 2026-04-08 02:43 | 16.97720 | 38.96170 | 36977 ft | 463 kts | 186° |
| 2026-04-08 02:43 | 16.91330 | 38.95939 | 36988 ft | 462 kts | 186° |
| 2026-04-08 02:44 | 16.84898 | 38.95707 | 36994 ft | 462 kts | 186° |
| 2026-04-08 02:44 | 16.78472 | 38.95475 | 36987 ft | 462 kts | 186° |
| 2026-04-08 02:45 | 16.72085 | 38.95244 | 36981 ft | 462 kts | 185° |
| 2026-04-08 02:45 | 16.65655 | 38.95012 | 36982 ft | 463 kts | 185° |
| 2026-04-08 02:46 | 16.59215 | 38.94780 | 36999 ft | 463 kts | 185° |
| 2026-04-08 02:46 | 16.52780 | 38.94549 | 36996 ft | 463 kts | 185° |
| 2026-04-08 02:47 | 16.46337 | 38.94317 | 36992 ft | 463 kts | 185° |
| 2026-04-08 02:47 | 16.39938 | 38.94087 | 37015 ft | 464 kts | 185° |
| 2026-04-08 02:48 | 16.33487 | 38.93855 | 37003 ft | 464 kts | 185° |
| 2026-04-08 02:48 | 16.27036 | 38.93623 | 37016 ft | 464 kts | 185° |
| 2026-04-08 02:49 | 16.20620 | 38.93393 | 37026 ft | 464 kts | 185° |
| 2026-04-08 02:49 | 16.14163 | 38.93161 | 37021 ft | 465 kts | 185° |
| 2026-04-08 02:50 | 16.07699 | 38.92930 | 37027 ft | 465 kts | 185° |
| 2026-04-08 02:50 | 16.01235 | 38.92698 | 37029 ft | 465 kts | 185° |
| 2026-04-08 02:51 | 15.94769 | 38.92467 | 37037 ft | 465 kts | 185° |
| 2026-04-08 02:51 | 15.88340 | 38.92237 | 37034 ft | 465 kts | 185° |
| 2026-04-08 02:52 | 15.81863 | 38.92005 | 37043 ft | 465 kts | 185° |
| 2026-04-08 02:52 | 15.75391 | 38.91774 | 37053 ft | 466 kts | 185° |
| 2026-04-08 02:53 | 15.68958 | 38.91545 | 37056 ft | 465 kts | 185° |
| 2026-04-08 02:53 | 15.62500 | 38.91316 | 37066 ft | 464 kts | 184° |
| 2026-04-08 02:54 | 15.56042 | 38.91084 | 37067 ft | 465 kts | 185° |
| 2026-04-08 02:54 | 15.49546 | 38.90852 | 37075 ft | 468 kts | 184° |
| 2026-04-08 02:55 | 15.43071 | 38.90622 | 37075 ft | 470 kts | 184° |
| 2026-04-08 02:55 | 15.36530 | 38.90389 | 37084 ft | 471 kts | 184° |
| 2026-04-08 02:56 | 15.29985 | 38.90573 | 37090 ft | 475 kts | 173° |
| 2026-04-08 02:56 | 15.23637 | 38.92540 | 37093 ft | 481 kts | 157° |
| 2026-04-08 02:57 | 15.17726 | 38.95728 | 37101 ft | 483 kts | 154° |
| 2026-04-08 02:57 | 15.11806 | 38.99032 | 37094 ft | 483 kts | 155° |
| 2026-04-08 02:58 | 15.05863 | 39.02289 | 37094 ft | 483 kts | 155° |
| 2026-04-08 02:58 | 14.99921 | 39.05503 | 37096 ft | 481 kts | 155° |
| 2026-04-08 02:59 | 14.93990 | 39.08701 | 37098 ft | 480 kts | 155° |
| 2026-04-08 03:00 | 14.85161 | 39.13460 | 37101 ft | 479 kts | 155° |
| 2026-04-08 03:00 | 14.79260 | 39.16641 | 37102 ft | 478 kts | 155° |
| 2026-04-08 03:01 | 14.73364 | 39.19817 | 37101 ft | 478 kts | 155° |
| 2026-04-08 03:01 | 14.67460 | 39.22996 | 37101 ft | 479 kts | 155° |
| 2026-04-08 03:02 | 14.61584 | 39.26157 | 37105 ft | 480 kts | 155° |
| 2026-04-08 03:02 | 14.55661 | 39.29342 | 37118 ft | 481 kts | 155° |
| 2026-04-08 03:03 | 14.49722 | 39.32534 | 37109 ft | 481 kts | 155° |
| 2026-04-08 03:03 | 14.43782 | 39.35726 | 37115 ft | 482 kts | 155° |
| 2026-04-08 03:04 | 14.37870 | 39.38903 | 37127 ft | 483 kts | 155° |
| 2026-04-08 03:04 | 14.31903 | 39.42108 | 37127 ft | 484 kts | 155° |
| 2026-04-08 03:05 | 14.25919 | 39.45322 | 37117 ft | 485 kts | 155° |
| 2026-04-08 03:05 | 14.19928 | 39.48538 | 37115 ft | 485 kts | 155° |
| 2026-04-08 03:06 | 14.13986 | 39.51727 | 37114 ft | 485 kts | 155° |
| 2026-04-08 03:06 | 14.07993 | 39.54939 | 37132 ft | 485 kts | 155° |
| 2026-04-08 03:07 | 14.02001 | 39.58148 | 37130 ft | 486 kts | 155° |
| 2026-04-08 03:07 | 13.96007 | 39.61357 | 37124 ft | 486 kts | 155° |
| 2026-04-08 03:08 | 13.90013 | 39.64566 | 37122 ft | 485 kts | 155° |
| 2026-04-08 03:08 | 13.84070 | 39.67744 | 37107 ft | 484 kts | 155° |
| 2026-04-08 03:09 | 13.78093 | 39.70938 | 37111 ft | 484 kts | 155° |
| 2026-04-08 03:09 | 13.72118 | 39.74130 | 37112 ft | 484 kts | 155° |
| 2026-04-08 03:10 | 13.66150 | 39.77316 | 37099 ft | 483 kts | 155° |
| 2026-04-08 03:10 | 13.60223 | 39.80480 | 37104 ft | 483 kts | 155° |
| 2026-04-08 03:11 | 13.54255 | 39.83661 | 37098 ft | 483 kts | 155° |
| 2026-04-08 03:11 | 13.48287 | 39.86842 | 37075 ft | 483 kts | 154° |
| 2026-04-08 03:12 | 13.42318 | 39.90021 | 37080 ft | 484 kts | 154° |
| 2026-04-08 03:12 | 13.36345 | 39.93201 | 37075 ft | 483 kts | 154° |
| 2026-04-08 03:13 | 13.30413 | 39.96357 | 37060 ft | 484 kts | 154° |
| 2026-04-08 03:13 | 13.24438 | 39.99534 | 37053 ft | 484 kts | 154° |
| 2026-04-08 03:14 | 13.18545 | 40.02666 | 37058 ft | 484 kts | 154° |
| 2026-04-08 03:14 | 13.12565 | 40.05843 | 37048 ft | 484 kts | 154° |
| 2026-04-08 03:15 | 13.06629 | 40.08994 | 37049 ft | 484 kts | 154° |
| 2026-04-08 03:15 | 13.00648 | 40.12167 | 37035 ft | 484 kts | 154° |
| 2026-04-08 03:16 | 12.94672 | 40.15336 | 37037 ft | 484 kts | 154° |
| 2026-04-08 03:16 | 12.88684 | 40.18510 | 37038 ft | 484 kts | 154° |
| 2026-04-08 03:17 | 12.82741 | 40.21659 | 37028 ft | 484 kts | 154° |
| 2026-04-08 03:17 | 12.76761 | 40.24825 | 37027 ft | 484 kts | 154° |
| 2026-04-08 03:18 | 12.70786 | 40.27987 | 37026 ft | 483 kts | 154° |
| 2026-04-08 03:18 | 12.64807 | 40.31150 | 37019 ft | 483 kts | 154° |
| 2026-04-08 03:19 | 12.58875 | 40.34286 | 37024 ft | 483 kts | 154° |
| 2026-04-08 03:19 | 12.52902 | 40.37442 | 37023 ft | 483 kts | 154° |
| 2026-04-08 03:20 | 12.46929 | 40.40597 | 37021 ft | 483 kts | 154° |
| 2026-04-08 03:20 | 12.40950 | 40.43717 | 37021 ft | 482 kts | 155° |
| 2026-04-08 03:21 | 12.34987 | 40.46771 | 37025 ft | 482 kts | 155° |
| 2026-04-08 03:21 | 12.28984 | 40.49843 | 37028 ft | 482 kts | 155° |
| 2026-04-08 03:22 | 12.22993 | 40.52916 | 37023 ft | 481 kts | 155° |
| 2026-04-08 03:22 | 12.17011 | 40.55988 | 37023 ft | 480 kts | 155° |
| 2026-04-08 03:23 | 12.11084 | 40.59031 | 37023 ft | 480 kts | 155° |
| 2026-04-08 03:23 | 12.05125 | 40.62088 | 37023 ft | 479 kts | 155° |
| 2026-04-08 03:24 | 11.99172 | 40.65140 | 37024 ft | 479 kts | 155° |
| 2026-04-08 03:24 | 11.93218 | 40.68192 | 37023 ft | 479 kts | 154° |
| 2026-04-08 03:25 | 11.87265 | 40.71241 | 37021 ft | 479 kts | 154° |
| 2026-04-08 03:25 | 11.81355 | 40.74267 | 37016 ft | 478 kts | 154° |
| 2026-04-08 03:26 | 11.75406 | 40.77311 | 37015 ft | 478 kts | 154° |
| 2026-04-08 03:26 | 11.69458 | 40.80354 | 37018 ft | 478 kts | 154° |
| 2026-04-08 03:27 | 11.63500 | 40.83399 | 37013 ft | 479 kts | 154° |
| 2026-04-08 03:27 | 11.57576 | 40.86427 | 37019 ft | 480 kts | 154° |
| 2026-04-08 03:28 | 11.51594 | 40.89482 | 37018 ft | 481 kts | 154° |
| 2026-04-08 03:28 | 11.45605 | 40.92539 | 37013 ft | 482 kts | 154° |
| 2026-04-08 03:29 | 11.39601 | 40.95603 | 37017 ft | 483 kts | 154° |
| 2026-04-08 03:29 | 11.33632 | 40.98647 | 37017 ft | 483 kts | 154° |
| 2026-04-08 03:30 | 11.27709 | 41.01666 | 37011 ft | 484 kts | 154° |
| 2026-04-08 03:30 | 11.21690 | 41.04733 | 37016 ft | 484 kts | 154° |
| 2026-04-08 03:31 | 11.15663 | 41.07803 | 37012 ft | 484 kts | 154° |
| 2026-04-08 03:31 | 11.09683 | 41.10847 | 37018 ft | 484 kts | 154° |
| 2026-04-08 03:32 | 11.03658 | 41.13913 | 37015 ft | 484 kts | 154° |
| 2026-04-08 03:32 | 10.97647 | 41.16970 | 37017 ft | 483 kts | 154° |
| 2026-04-08 03:33 | 10.91633 | 41.20027 | 37009 ft | 483 kts | 154° |
| 2026-04-08 03:33 | 10.85630 | 41.23078 | 37021 ft | 482 kts | 154° |
| 2026-04-08 03:34 | 10.79665 | 41.26107 | 37017 ft | 482 kts | 154° |
| 2026-04-08 03:34 | 10.73659 | 41.29156 | 37017 ft | 482 kts | 154° |
| 2026-04-08 03:35 | 10.67651 | 41.32205 | 37023 ft | 483 kts | 154° |
| 2026-04-08 03:35 | 10.61635 | 41.35257 | 37029 ft | 484 kts | 154° |
| 2026-04-08 03:36 | 10.55646 | 41.38293 | 37022 ft | 485 kts | 154° |
| 2026-04-08 03:36 | 10.49610 | 41.41352 | 37025 ft | 485 kts | 154° |
| 2026-04-08 03:37 | 10.43566 | 41.44413 | 37021 ft | 486 kts | 154° |
| 2026-04-08 03:37 | 10.37510 | 41.47480 | 37026 ft | 487 kts | 154° |
| 2026-04-08 03:38 | 10.31483 | 41.50530 | 37025 ft | 487 kts | 154° |
| 2026-04-08 03:38 | 10.25410 | 41.53603 | 37026 ft | 488 kts | 154° |
| 2026-04-08 03:39 | 10.19330 | 41.56677 | 37022 ft | 488 kts | 154° |
| 2026-04-08 03:39 | 10.13247 | 41.59752 | 37026 ft | 488 kts | 154° |
| 2026-04-08 03:40 | 10.07202 | 41.62806 | 37027 ft | 489 kts | 154° |
| 2026-04-08 03:40 | 10.01113 | 41.65881 | 37032 ft | 489 kts | 154° |
| 2026-04-08 03:41 | 9.95026 | 41.68954 | 37034 ft | 489 kts | 154° |
| 2026-04-08 03:41 | 9.88933 | 41.72029 | 37040 ft | 489 kts | 154° |
| 2026-04-08 03:42 | 9.82840 | 41.75103 | 37041 ft | 489 kts | 154° |
| 2026-04-08 03:42 | 9.76789 | 41.78154 | 37069 ft | 489 kts | 154° |
| 2026-04-08 03:43 | 9.70699 | 41.81225 | 37067 ft | 489 kts | 154° |
| 2026-04-08 03:43 | 9.64607 | 41.84294 | 37089 ft | 489 kts | 154° |
| 2026-04-08 03:44 | 9.58454 | 41.87224 | 37096 ft | 489 kts | 156° |
| 2026-04-08 03:44 | 9.52285 | 41.90005 | 37118 ft | 489 kts | 156° |
| 2026-04-08 03:45 | 9.46072 | 41.92816 | 37136 ft | 489 kts | 156° |
| 2026-04-08 03:45 | 9.39873 | 41.95649 | 37134 ft | 489 kts | 156° |
| 2026-04-08 03:46 | 9.33676 | 41.98493 | 37147 ft | 489 kts | 156° |
| 2026-04-08 03:46 | 9.27614 | 42.01275 | 37149 ft | 489 kts | 156° |
| 2026-04-08 03:47 | 9.21421 | 42.04114 | 37139 ft | 488 kts | 156° |
| 2026-04-08 03:47 | 9.15240 | 42.06945 | 37146 ft | 488 kts | 156° |
| 2026-04-08 03:48 | 9.09060 | 42.09775 | 37137 ft | 487 kts | 156° |
| 2026-04-08 03:48 | 9.02926 | 42.12583 | 37134 ft | 487 kts | 156° |
| 2026-04-08 03:49 | 8.96760 | 42.15404 | 37125 ft | 487 kts | 156° |
| 2026-04-08 03:49 | 8.90586 | 42.18228 | 37128 ft | 487 kts | 156° |
| 2026-04-08 03:50 | 8.84413 | 42.21051 | 37120 ft | 487 kts | 156° |
| 2026-04-08 03:50 | 8.78232 | 42.23876 | 37121 ft | 487 kts | 156° |
| 2026-04-08 03:51 | 8.72091 | 42.26682 | 37115 ft | 488 kts | 156° |
| 2026-04-08 03:51 | 8.65902 | 42.29508 | 37116 ft | 488 kts | 156° |
| 2026-04-08 03:52 | 8.59712 | 42.32335 | 37110 ft | 488 kts | 156° |
| 2026-04-08 03:52 | 8.53523 | 42.35160 | 37111 ft | 488 kts | 155° |
| 2026-04-08 03:53 | 8.47383 | 42.37963 | 37100 ft | 488 kts | 155° |
| 2026-04-08 03:53 | 8.41200 | 42.40783 | 37099 ft | 487 kts | 155° |
| 2026-04-08 03:54 | 8.35023 | 42.43610 | 37099 ft | 487 kts | 155° |
| 2026-04-08 03:54 | 8.28855 | 42.46436 | 37100 ft | 487 kts | 155° |
| 2026-04-08 03:55 | 8.22729 | 42.49240 | 37095 ft | 486 kts | 155° |
| 2026-04-08 03:55 | 8.16570 | 42.52057 | 37098 ft | 486 kts | 155° |
| 2026-04-08 03:56 | 8.10411 | 42.54873 | 37094 ft | 486 kts | 155° |
| 2026-04-08 03:56 | 8.04292 | 42.57672 | 37088 ft | 486 kts | 155° |
| 2026-04-08 03:57 | 7.98141 | 42.60485 | 37082 ft | 486 kts | 155° |
| 2026-04-08 03:57 | 7.91981 | 42.63301 | 37070 ft | 486 kts | 155° |
| 2026-04-08 03:58 | 7.85822 | 42.66115 | 37091 ft | 486 kts | 155° |
| 2026-04-08 03:58 | 7.79707 | 42.68909 | 37075 ft | 486 kts | 155° |
| 2026-04-08 03:59 | 7.73553 | 42.71719 | 37070 ft | 485 kts | 155° |
| 2026-04-08 03:59 | 7.64331 | 42.75929 | 37069 ft | 485 kts | 155° |
| 2026-04-08 04:00 | 7.58190 | 42.78731 | 37074 ft | 484 kts | 155° |
| 2026-04-08 04:00 | 7.52089 | 42.81514 | 37070 ft | 484 kts | 155° |
| 2026-04-08 04:01 | 7.45950 | 42.84313 | 37069 ft | 485 kts | 155° |
| 2026-04-08 04:01 | 7.39805 | 42.87115 | 37070 ft | 485 kts | 155° |
| 2026-04-08 04:02 | 7.33660 | 42.89915 | 37073 ft | 485 kts | 155° |
| 2026-04-08 04:02 | 7.27553 | 42.92698 | 37069 ft | 485 kts | 155° |
| 2026-04-08 04:03 | 7.21404 | 42.95499 | 37072 ft | 485 kts | 155° |
| 2026-04-08 04:03 | 7.15251 | 42.98301 | 37068 ft | 485 kts | 155° |
| 2026-04-08 04:04 | 7.09188 | 43.01061 | 37069 ft | 485 kts | 155° |
| 2026-04-08 04:04 | 7.03072 | 43.03845 | 37063 ft | 486 kts | 155° |
| 2026-04-08 04:05 | 6.96924 | 43.06642 | 37061 ft | 485 kts | 155° |
| 2026-04-08 04:05 | 6.90772 | 43.09445 | 37063 ft | 485 kts | 155° |
| 2026-04-08 04:06 | 6.84621 | 43.12252 | 37060 ft | 485 kts | 155° |
| 2026-04-08 04:06 | 6.78514 | 43.15038 | 37058 ft | 485 kts | 154° |
| 2026-04-08 04:07 | 6.72366 | 43.17843 | 37060 ft | 485 kts | 155° |
| 2026-04-08 04:07 | 6.66220 | 43.20645 | 37061 ft | 485 kts | 155° |
| 2026-04-08 04:08 | 6.60070 | 43.23448 | 37053 ft | 485 kts | 155° |
| 2026-04-08 04:08 | 6.53923 | 43.26248 | 37054 ft | 485 kts | 155° |
| 2026-04-08 04:09 | 6.47819 | 43.29029 | 37053 ft | 485 kts | 155° |
| 2026-04-08 04:09 | 6.41676 | 43.31826 | 37045 ft | 485 kts | 155° |
| 2026-04-08 04:10 | 6.35534 | 43.34623 | 37051 ft | 485 kts | 155° |
| 2026-04-08 04:10 | 6.30428 | 43.36947 | 37039 ft | 485 kts | 155° |
| 2026-04-08 04:11 | 6.23287 | 43.40197 | 37040 ft | 485 kts | 155° |
| 2026-04-08 04:11 | 6.18177 | 43.42521 | 37038 ft | 485 kts | 155° |
| 2026-04-08 04:12 | 6.10996 | 43.45788 | 37041 ft | 485 kts | 155° |
| 2026-04-08 04:12 | 6.04895 | 43.48562 | 37044 ft | 484 kts | 155° |
| 2026-04-08 04:13 | 5.99756 | 43.50898 | 37039 ft | 484 kts | 155° |
| 2026-04-08 04:13 | 5.92627 | 43.54138 | 37040 ft | 484 kts | 155° |
| 2026-04-08 04:14 | 5.87534 | 43.56453 | 37040 ft | 483 kts | 155° |
| 2026-04-08 04:14 | 5.81406 | 43.59237 | 37042 ft | 483 kts | 155° |
| 2026-04-08 04:15 | 5.75277 | 43.62021 | 37042 ft | 483 kts | 155° |
| 2026-04-08 04:15 | 5.69155 | 43.64802 | 37045 ft | 483 kts | 155° |
| 2026-04-08 04:16 | 5.63070 | 43.67567 | 37044 ft | 483 kts | 155° |
| 2026-04-08 04:16 | 5.56953 | 43.70354 | 37048 ft | 483 kts | 155° |
| 2026-04-08 04:17 | 5.50827 | 43.73144 | 37050 ft | 483 kts | 155° |
| 2026-04-08 04:17 | 5.44707 | 43.75931 | 37054 ft | 483 kts | 155° |
| 2026-04-08 04:18 | 5.38626 | 43.78700 | 37046 ft | 483 kts | 155° |
| 2026-04-08 04:18 | 5.32504 | 43.81486 | 37044 ft | 483 kts | 155° |
| 2026-04-08 04:19 | 5.26390 | 43.84268 | 37045 ft | 483 kts | 155° |
| 2026-04-08 04:19 | 5.20276 | 43.87050 | 37043 ft | 483 kts | 155° |
| 2026-04-08 04:20 | 5.14202 | 43.89813 | 37050 ft | 483 kts | 155° |
| 2026-04-08 04:20 | 5.08084 | 43.92595 | 37047 ft | 483 kts | 155° |
| 2026-04-08 04:21 | 5.01964 | 43.95378 | 37047 ft | 483 kts | 155° |
| 2026-04-08 04:21 | 4.95848 | 43.98159 | 37049 ft | 483 kts | 155° |
| 2026-04-08 04:22 | 4.89817 | 44.00895 | 37058 ft | 483 kts | 155° |
| 2026-04-08 04:22 | 4.83720 | 44.03614 | 37054 ft | 483 kts | 155° |
| 2026-04-08 04:23 | 4.77588 | 44.06336 | 37060 ft | 482 kts | 155° |
| 2026-04-08 04:23 | 4.71467 | 44.09059 | 37057 ft | 481 kts | 155° |
| 2026-04-08 04:24 | 4.65354 | 44.11781 | 37066 ft | 480 kts | 155° |
| 2026-04-08 04:24 | 4.59286 | 44.14485 | 37064 ft | 481 kts | 155° |
| 2026-04-08 04:25 | 4.53174 | 44.17207 | 37063 ft | 481 kts | 155° |
| 2026-04-08 04:25 | 4.47060 | 44.19929 | 37066 ft | 481 kts | 155° |
| 2026-04-08 04:26 | 4.40944 | 44.22653 | 37064 ft | 481 kts | 155° |
| 2026-04-08 04:26 | 4.34874 | 44.25355 | 37063 ft | 481 kts | 155° |
| 2026-04-08 04:27 | 4.28765 | 44.28074 | 37065 ft | 480 kts | 155° |
| 2026-04-08 04:27 | 4.22652 | 44.30794 | 37065 ft | 480 kts | 155° |
| 2026-04-08 04:28 | 4.16544 | 44.33512 | 37056 ft | 480 kts | 155° |
| 2026-04-08 04:28 | 4.10473 | 44.36212 | 37062 ft | 481 kts | 155° |
| 2026-04-08 04:29 | 4.04360 | 44.38931 | 37061 ft | 481 kts | 155° |
| 2026-04-08 04:29 | 3.98247 | 44.41649 | 37061 ft | 481 kts | 155° |
| 2026-04-08 04:30 | 3.92123 | 44.44372 | 37078 ft | 482 kts | 155° |
| 2026-04-08 04:30 | 3.89051 | 44.45738 | 37252 ft | 483 kts | 155° |
| 2026-04-08 04:30 | 3.85987 | 44.47099 | 37550 ft | 481 kts | 155° |
| 2026-04-08 04:31 | 3.82978 | 44.48437 | 37847 ft | 479 kts | 155° |
| 2026-04-08 04:31 | 3.79941 | 44.49786 | 38137 ft | 477 kts | 155° |
| 2026-04-08 04:31 | 3.76911 | 44.51133 | 38349 ft | 476 kts | 155° |
| 2026-04-08 04:31 | 3.73879 | 44.52481 | 38555 ft | 476 kts | 155° |
| 2026-04-08 04:32 | 3.70852 | 44.53826 | 38741 ft | 476 kts | 155° |
| 2026-04-08 04:32 | 3.67826 | 44.55170 | 38927 ft | 476 kts | 155° |
| 2026-04-08 04:32 | 3.61764 | 44.57864 | 39020 ft | 477 kts | 155° |
| 2026-04-08 04:33 | 3.55737 | 44.60541 | 39051 ft | 477 kts | 155° |
| 2026-04-08 04:33 | 3.49671 | 44.63235 | 39057 ft | 477 kts | 155° |
| 2026-04-08 04:34 | 3.43613 | 44.65926 | 39048 ft | 476 kts | 155° |
| 2026-04-08 04:34 | 3.37560 | 44.68613 | 39049 ft | 476 kts | 155° |
| 2026-04-08 04:35 | 3.31552 | 44.71280 | 39044 ft | 475 kts | 155° |
| 2026-04-08 04:35 | 3.25507 | 44.73964 | 39047 ft | 475 kts | 155° |
| 2026-04-08 04:36 | 3.19464 | 44.76646 | 39042 ft | 475 kts | 155° |
| 2026-04-08 04:36 | 3.13421 | 44.79328 | 39039 ft | 475 kts | 155° |
| 2026-04-08 04:37 | 3.07417 | 44.81992 | 39036 ft | 475 kts | 155° |
| 2026-04-08 04:37 | 3.01370 | 44.84675 | 39037 ft | 475 kts | 155° |
| 2026-04-08 04:38 | 2.95333 | 44.87353 | 39032 ft | 475 kts | 155° |
| 2026-04-08 04:38 | 2.89281 | 44.90037 | 39034 ft | 476 kts | 155° |
| 2026-04-08 04:39 | 2.83270 | 44.92704 | 39033 ft | 476 kts | 155° |
| 2026-04-08 04:39 | 2.77217 | 44.95388 | 39033 ft | 476 kts | 155° |
| 2026-04-08 04:40 | 2.71160 | 44.98074 | 39033 ft | 476 kts | 155° |
| 2026-04-08 04:40 | 2.65188 | 45.00721 | 39024 ft | 476 kts | 155° |
| 2026-04-08 04:41 | 2.59162 | 45.03393 | 39030 ft | 477 kts | 155° |
| 2026-04-08 04:41 | 2.53090 | 45.06084 | 39031 ft | 478 kts | 155° |
| 2026-04-08 04:42 | 2.47013 | 45.08778 | 39028 ft | 478 kts | 155° |
| 2026-04-08 04:42 | 2.40927 | 45.11475 | 39030 ft | 479 kts | 155° |
| 2026-04-08 04:43 | 2.34835 | 45.14175 | 39032 ft | 479 kts | 155° |
| 2026-04-08 04:43 | 2.28782 | 45.16857 | 39026 ft | 479 kts | 155° |
| 2026-04-08 04:44 | 2.22683 | 45.19559 | 39025 ft | 479 kts | 155° |
| 2026-04-08 04:44 | 2.16587 | 45.22260 | 39026 ft | 479 kts | 155° |
| 2026-04-08 04:45 | 2.10493 | 45.24960 | 39024 ft | 479 kts | 155° |
| 2026-04-08 04:45 | 2.04444 | 45.27640 | 39021 ft | 478 kts | 155° |
| 2026-04-08 04:46 | 1.98364 | 45.30323 | 39024 ft | 478 kts | 156° |
| 2026-04-08 04:46 | 1.92255 | 45.32950 | 39016 ft | 478 kts | 156° |
| 2026-04-08 04:47 | 1.86144 | 45.35562 | 39016 ft | 477 kts | 156° |
| 2026-04-08 04:47 | 1.80039 | 45.38180 | 39017 ft | 477 kts | 156° |
| 2026-04-08 04:48 | 1.73982 | 45.40783 | 39016 ft | 477 kts | 156° |
| 2026-04-08 04:48 | 1.67889 | 45.43403 | 39016 ft | 477 kts | 156° |
| 2026-04-08 04:49 | 1.61799 | 45.46022 | 39012 ft | 476 kts | 156° |
| 2026-04-08 04:49 | 1.55710 | 45.48639 | 39017 ft | 476 kts | 156° |
| 2026-04-08 04:50 | 1.49665 | 45.51237 | 39018 ft | 476 kts | 156° |
| 2026-04-08 04:50 | 1.43577 | 45.53854 | 39017 ft | 476 kts | 156° |
| 2026-04-08 04:51 | 1.37489 | 45.56471 | 39014 ft | 476 kts | 156° |
| 2026-04-08 04:51 | 1.31438 | 45.59071 | 39019 ft | 477 kts | 156° |
| 2026-04-08 04:52 | 1.25345 | 45.61689 | 39018 ft | 477 kts | 156° |
| 2026-04-08 04:52 | 1.19252 | 45.64308 | 39017 ft | 477 kts | 156° |
| 2026-04-08 04:53 | 1.13158 | 45.66927 | 39014 ft | 477 kts | 156° |
| 2026-04-08 04:53 | 1.07067 | 45.69544 | 39021 ft | 477 kts | 156° |
| 2026-04-08 04:54 | 1.01010 | 45.72146 | 39020 ft | 477 kts | 156° |
| 2026-04-08 04:54 | 0.94918 | 45.74764 | 39021 ft | 477 kts | 156° |
| 2026-04-08 04:55 | 0.88817 | 45.77385 | 39019 ft | 477 kts | 156° |
| 2026-04-08 04:55 | 0.82720 | 45.80004 | 39020 ft | 477 kts | 156° |
| 2026-04-08 04:56 | 0.76662 | 45.82607 | 39017 ft | 477 kts | 156° |
| 2026-04-08 04:56 | 0.70559 | 45.85229 | 39019 ft | 478 kts | 156° |
| 2026-04-08 04:57 | 0.64451 | 45.87853 | 39015 ft | 478 kts | 156° |
| 2026-04-08 04:57 | 0.58341 | 45.90478 | 39017 ft | 478 kts | 156° |
| 2026-04-08 04:58 | 0.52274 | 45.93097 | 39017 ft | 478 kts | 156° |
| 2026-04-08 04:58 | 0.46171 | 45.95773 | 39017 ft | 479 kts | 156° |
| 2026-04-08 04:59 | 0.40072 | 45.98454 | 39016 ft | 479 kts | 156° |
| 2026-04-08 04:59 | 0.34044 | 46.01099 | 39016 ft | 479 kts | 156° |
| 2026-04-08 05:00 | 0.24924 | 46.05095 | 39020 ft | 479 kts | 156° |
| 2026-04-08 05:01 | 0.18820 | 46.07769 | 39019 ft | 479 kts | 156° |
| 2026-04-08 05:01 | 0.12716 | 46.10444 | 39019 ft | 479 kts | 156° |
| 2026-04-08 05:02 | 0.06611 | 46.13119 | 39019 ft | 479 kts | 156° |
| 2026-04-08 05:02 | 0.00549 | 46.15775 | 39021 ft | 479 kts | 156° |
| 2026-04-08 05:03 | -0.05548 | 46.18447 | 39019 ft | 479 kts | 156° |
| 2026-04-08 05:03 | -0.11653 | 46.21123 | 39019 ft | 479 kts | 156° |
| 2026-04-08 05:04 | -0.17760 | 46.23799 | 39019 ft | 479 kts | 156° |
| 2026-04-08 05:04 | -0.23838 | 46.26425 | 39019 ft | 479 kts | 157° |
| 2026-04-08 05:05 | -0.29977 | 46.29026 | 39016 ft | 480 kts | 157° |
| 2026-04-08 05:05 | -0.36122 | 46.31631 | 39020 ft | 480 kts | 156° |
| 2026-04-08 05:06 | -0.42271 | 46.34246 | 39020 ft | 480 kts | 156° |
| 2026-04-08 05:06 | -0.48382 | 46.36848 | 39016 ft | 481 kts | 156° |
| 2026-04-08 05:07 | -0.54540 | 46.39471 | 39018 ft | 481 kts | 156° |
| 2026-04-08 05:07 | -0.60705 | 46.42096 | 39014 ft | 482 kts | 156° |
| 2026-04-08 05:08 | -0.66871 | 46.44722 | 39019 ft | 482 kts | 156° |
| 2026-04-08 05:08 | -0.73042 | 46.47350 | 39014 ft | 482 kts | 156° |
| 2026-04-08 05:09 | -0.79178 | 46.49963 | 39014 ft | 483 kts | 156° |
| 2026-04-08 05:09 | -0.85358 | 46.52595 | 39017 ft | 483 kts | 156° |
| 2026-04-08 05:10 | -0.91544 | 46.55229 | 39012 ft | 483 kts | 156° |
| 2026-04-08 05:10 | -0.97731 | 46.57865 | 39016 ft | 484 kts | 156° |
| 2026-04-08 05:11 | -1.03875 | 46.60482 | 39012 ft | 484 kts | 156° |
| 2026-04-08 05:11 | -1.10066 | 46.63119 | 39012 ft | 484 kts | 156° |
| 2026-04-08 05:12 | -1.16260 | 46.65758 | 39014 ft | 484 kts | 156° |
| 2026-04-08 05:12 | -1.22456 | 46.68401 | 39009 ft | 484 kts | 156° |
| 2026-04-08 05:13 | -1.28604 | 46.71024 | 39012 ft | 484 kts | 156° |
| 2026-04-08 05:13 | -1.34790 | 46.73664 | 39007 ft | 483 kts | 156° |
| 2026-04-08 05:14 | -1.40977 | 46.76305 | 39011 ft | 483 kts | 156° |
| 2026-04-08 05:14 | -1.47161 | 46.78944 | 39011 ft | 483 kts | 156° |
| 2026-04-08 05:15 | -1.53339 | 46.81581 | 39010 ft | 483 kts | 156° |
| 2026-04-08 05:15 | -1.59468 | 46.84197 | 39014 ft | 482 kts | 156° |
| 2026-04-08 05:16 | -1.65634 | 46.86829 | 39013 ft | 482 kts | 156° |
| 2026-04-08 05:16 | -1.71799 | 46.89460 | 39013 ft | 482 kts | 156° |
| 2026-04-08 05:17 | -1.77957 | 46.92090 | 39015 ft | 481 kts | 156° |
| 2026-04-08 05:17 | -1.84074 | 46.94702 | 39014 ft | 481 kts | 156° |
| 2026-04-08 05:18 | -1.90226 | 46.97328 | 39014 ft | 481 kts | 156° |
| 2026-04-08 05:18 | -1.96379 | 46.99956 | 39010 ft | 481 kts | 156° |
| 2026-04-08 05:19 | -2.02426 | 47.02538 | 39009 ft | 481 kts | 156° |
| 2026-04-08 05:19 | -2.08534 | 47.05147 | 39009 ft | 480 kts | 156° |
| 2026-04-08 05:20 | -2.14679 | 47.07771 | 39008 ft | 480 kts | 156° |
| 2026-04-08 05:20 | -2.20821 | 47.10395 | 39007 ft | 480 kts | 156° |
| 2026-04-08 05:21 | -2.26967 | 47.13020 | 39007 ft | 480 kts | 156° |
| 2026-04-08 05:21 | -2.33102 | 47.15641 | 39007 ft | 480 kts | 156° |
| 2026-04-08 05:22 | -2.39196 | 47.18245 | 39007 ft | 479 kts | 156° |
| 2026-04-08 05:22 | -2.45330 | 47.20867 | 39008 ft | 479 kts | 156° |
| 2026-04-08 05:23 | -2.51465 | 47.23488 | 39006 ft | 480 kts | 156° |
| 2026-04-08 05:23 | -2.57604 | 47.26112 | 39009 ft | 480 kts | 156° |
| 2026-04-08 05:24 | -2.63700 | 47.28718 | 39008 ft | 480 kts | 156° |
| 2026-04-08 05:24 | -2.69838 | 47.31343 | 39010 ft | 480 kts | 156° |
| 2026-04-08 05:25 | -2.75983 | 47.33970 | 39011 ft | 480 kts | 156° |
| 2026-04-08 05:25 | -2.82126 | 47.36597 | 39009 ft | 480 kts | 156° |
| 2026-04-08 05:26 | -2.88221 | 47.39204 | 39010 ft | 479 kts | 156° |
| 2026-04-08 05:26 | -2.94355 | 47.41828 | 39012 ft | 479 kts | 156° |
| 2026-04-08 05:27 | -3.00474 | 47.44446 | 39014 ft | 479 kts | 156° |
| 2026-04-08 05:27 | -3.06598 | 47.47065 | 39013 ft | 478 kts | 156° |
| 2026-04-08 05:28 | -3.12713 | 47.49681 | 39020 ft | 478 kts | 156° |
| 2026-04-08 05:28 | -3.18776 | 47.52277 | 39011 ft | 477 kts | 156° |
| 2026-04-08 05:29 | -3.24872 | 47.54887 | 39012 ft | 476 kts | 156° |
| 2026-04-08 05:29 | -3.30966 | 47.57497 | 39012 ft | 476 kts | 156° |
| 2026-04-08 05:30 | -3.37052 | 47.60103 | 39015 ft | 476 kts | 156° |
| 2026-04-08 05:30 | -3.43092 | 47.62690 | 39018 ft | 475 kts | 156° |
| 2026-04-08 05:31 | -3.49168 | 47.65293 | 39013 ft | 475 kts | 156° |
| 2026-04-08 05:31 | -3.55235 | 47.67893 | 39014 ft | 474 kts | 156° |
| 2026-04-08 05:32 | -3.61297 | 47.70490 | 39014 ft | 474 kts | 156° |
| 2026-04-08 05:32 | -3.67317 | 47.73070 | 39014 ft | 474 kts | 155° |
| 2026-04-08 05:33 | -3.73347 | 47.75655 | 39014 ft | 470 kts | 155° |
| 2026-04-08 05:33 | -3.79338 | 47.78223 | 39007 ft | 467 kts | 155° |
| 2026-04-08 05:34 | -3.85289 | 47.80775 | 39007 ft | 464 kts | 155° |
| 2026-04-08 05:34 | -3.91178 | 47.83301 | 39011 ft | 463 kts | 155° |
| 2026-04-08 05:35 | -3.97106 | 47.85844 | 39016 ft | 464 kts | 155° |
| 2026-04-08 05:35 | -4.03024 | 47.88383 | 39015 ft | 463 kts | 155° |
| 2026-04-08 05:36 | -4.08949 | 47.90925 | 39015 ft | 463 kts | 155° |
| 2026-04-08 05:36 | -4.14832 | 47.93451 | 39013 ft | 463 kts | 155° |
| 2026-04-08 05:37 | -4.20759 | 47.95994 | 39013 ft | 463 kts | 155° |
| 2026-04-08 05:37 | -4.26685 | 47.98535 | 39021 ft | 463 kts | 155° |
| 2026-04-08 05:38 | -4.32510 | 48.01029 | 39016 ft | 462 kts | 155° |
| 2026-04-08 05:38 | -4.38377 | 48.03542 | 39012 ft | 461 kts | 155° |
| 2026-04-08 05:39 | -4.44280 | 48.06072 | 39017 ft | 461 kts | 155° |
| 2026-04-08 05:39 | -4.50177 | 48.08600 | 39016 ft | 461 kts | 155° |
| 2026-04-08 05:40 | -4.56069 | 48.11127 | 39019 ft | 461 kts | 156° |
| 2026-04-08 05:40 | -4.61916 | 48.13635 | 39015 ft | 460 kts | 156° |
| 2026-04-08 05:41 | -4.67799 | 48.16158 | 39016 ft | 459 kts | 156° |
| 2026-04-08 05:41 | -4.73674 | 48.18679 | 39016 ft | 459 kts | 156° |
| 2026-04-08 05:42 | -4.79544 | 48.21198 | 39017 ft | 459 kts | 156° |
| 2026-04-08 05:42 | -4.85373 | 48.23700 | 39014 ft | 459 kts | 155° |
| 2026-04-08 05:43 | -4.91249 | 48.26222 | 39018 ft | 460 kts | 155° |
| 2026-04-08 05:43 | -4.97133 | 48.28749 | 39017 ft | 460 kts | 155° |
| 2026-04-08 05:44 | -5.03021 | 48.31277 | 39018 ft | 461 kts | 155° |
| 2026-04-08 05:44 | -5.08881 | 48.33794 | 39015 ft | 462 kts | 155° |
| 2026-04-08 05:45 | -5.14789 | 48.36332 | 39017 ft | 462 kts | 155° |
| 2026-04-08 05:45 | -5.20693 | 48.38870 | 39016 ft | 462 kts | 155° |
| 2026-04-08 05:46 | -5.26593 | 48.41405 | 39019 ft | 461 kts | 155° |
| 2026-04-08 05:46 | -5.32492 | 48.43941 | 39021 ft | 461 kts | 155° |
| 2026-04-08 05:47 | -5.38345 | 48.46458 | 39024 ft | 461 kts | 155° |
| 2026-04-08 05:47 | -5.44235 | 48.48991 | 39022 ft | 460 kts | 155° |
| 2026-04-08 05:48 | -5.50123 | 48.51524 | 39024 ft | 460 kts | 155° |
| 2026-04-08 05:48 | -5.56009 | 48.54056 | 39025 ft | 460 kts | 155° |
| 2026-04-08 05:49 | -5.61852 | 48.56571 | 39025 ft | 460 kts | 155° |
| 2026-04-08 05:49 | -5.67734 | 48.59103 | 39025 ft | 460 kts | 155° |
| 2026-04-08 05:50 | -5.73616 | 48.61635 | 39026 ft | 460 kts | 156° |
| 2026-04-08 05:50 | -5.79497 | 48.64168 | 39023 ft | 460 kts | 156° |
| 2026-04-08 05:51 | -5.85330 | 48.66680 | 39021 ft | 459 kts | 156° |
| 2026-04-08 05:51 | -5.91200 | 48.69209 | 39024 ft | 459 kts | 156° |
| 2026-04-08 05:52 | -5.97069 | 48.71738 | 39025 ft | 459 kts | 156° |
| 2026-04-08 05:52 | -6.02936 | 48.74267 | 39015 ft | 459 kts | 156° |
| 2026-04-08 05:53 | -6.08817 | 48.76803 | 39024 ft | 460 kts | 156° |
| 2026-04-08 05:53 | -6.14671 | 48.79327 | 39027 ft | 462 kts | 156° |
| 2026-04-08 05:54 | -6.20576 | 48.81874 | 39025 ft | 463 kts | 156° |
| 2026-04-08 05:54 | -6.26501 | 48.84430 | 39025 ft | 463 kts | 156° |
| 2026-04-08 05:55 | -6.32431 | 48.86990 | 39021 ft | 464 kts | 156° |
| 2026-04-08 05:55 | -6.38330 | 48.89536 | 39025 ft | 465 kts | 156° |
| 2026-04-08 05:56 | -6.44276 | 48.92103 | 39028 ft | 465 kts | 156° |
| 2026-04-08 05:56 | -6.50229 | 48.94675 | 39027 ft | 466 kts | 156° |
| 2026-04-08 05:57 | -6.59163 | 48.98534 | 39027 ft | 466 kts | 156° |
| 2026-04-08 05:57 | -6.64995 | 49.01055 | 39028 ft | 465 kts | 156° |
| 2026-04-08 05:58 | -6.70943 | 49.03626 | 39024 ft | 465 kts | 156° |
| 2026-04-08 05:58 | -6.76879 | 49.06193 | 39027 ft | 464 kts | 155° |
| 2026-04-08 05:59 | -6.82805 | 49.08756 | 39022 ft | 464 kts | 156° |
| 2026-04-08 05:59 | -6.88690 | 49.11303 | 39026 ft | 463 kts | 156° |
| 2026-04-08 06:00 | -6.94616 | 49.13868 | 39029 ft | 464 kts | 156° |
| 2026-04-08 06:00 | -7.00544 | 49.16434 | 39033 ft | 465 kts | 156° |
| 2026-04-08 06:01 | -7.06488 | 49.19005 | 39030 ft | 466 kts | 156° |
| 2026-04-08 06:01 | -7.12406 | 49.21564 | 39033 ft | 466 kts | 156° |
| 2026-04-08 06:02 | -7.18373 | 49.24145 | 39033 ft | 467 kts | 156° |
| 2026-04-08 06:02 | -7.24345 | 49.26730 | 39029 ft | 467 kts | 156° |
| 2026-04-08 06:03 | -7.30314 | 49.29316 | 39029 ft | 467 kts | 156° |
| 2026-04-08 06:03 | -7.36284 | 49.31902 | 39033 ft | 467 kts | 156° |
| 2026-04-08 06:04 | -7.42207 | 49.34468 | 39032 ft | 467 kts | 155° |
| 2026-04-08 06:04 | -7.48171 | 49.37054 | 39032 ft | 466 kts | 155° |
| 2026-04-08 06:05 | -7.54124 | 49.39635 | 39035 ft | 465 kts | 155° |
| 2026-04-08 06:05 | -7.60025 | 49.42194 | 39032 ft | 464 kts | 155° |
| 2026-04-08 06:06 | -7.62987 | 49.43479 | 39031 ft | 464 kts | 155° |